<?xml version="1.0" encoding="UTF-8" standalone="no" ?><gpx xmlns="http://www.topografix.com/GPX/1/1" xmlns:gpxx="http://www.garmin.com/xmlschemas/GpxExtensions/v3" xmlns:wptx1="http://www.garmin.com/xmlschemas/WaypointExtension/v1" xmlns:gpxtpx="http://www.garmin.com/xmlschemas/TrackPointExtension/v1" creator="GPSMAP 62s" version="1.1" xmlns:xsi="http://www.w3.org/2001/XMLSchema-instance" xsi:schemaLocation="http://www.topografix.com/GPX/1/1 http://www.topografix.com/GPX/1/1/gpx.xsd http://www.garmin.com/xmlschemas/GpxExtensions/v3 http://www8.garmin.com/xmlschemas/GpxExtensionsv3.xsd http://www.garmin.com/xmlschemas/WaypointExtension/v1 http://www8.garmin.com/xmlschemas/WaypointExtensionv1.xsd http://www.garmin.com/xmlschemas/TrackPointExtension/v1 http://www.garmin.com/xmlschemas/TrackPointExtensionv1.xsd"><metadata><link href="http://www.garmin.com"><text>Garmin International</text></link><time>2012-06-16T08:25:25Z</time></metadata><trk><name>Current Track: 16 JUN 2012 06:51</name><extensions><gpxx:TrackExtension><gpxx:DisplayColor>Blue</gpxx:DisplayColor></gpxx:TrackExtension></extensions><trkseg><trkpt lat="31.6869335901" lon="34.9469501060"><ele>274.59</ele><time>2012-06-16T03:51:19Z</time></trkpt><trkpt lat="31.6869363561" lon="34.9469465856"><ele>274.59</ele><time>2012-06-16T03:51:50Z</time></trkpt><trkpt lat="31.6869314946" lon="34.9469460826"><ele>274.59</ele><time>2012-06-16T03:52:25Z</time></trkpt><trkpt lat="31.6869205143" lon="34.9469519500"><ele>274.59</ele><time>2012-06-16T03:53:04Z</time></trkpt><trkpt lat="31.6869255435" lon="34.9469544645"><ele>274.59</ele><time>2012-06-16T03:53:43Z</time></trkpt><trkpt lat="31.6869101208" lon="34.9469667859"><ele>274.59</ele><time>2012-06-16T03:54:12Z</time></trkpt><trkpt lat="31.6869578976" lon="34.9470050912"><ele>274.59</ele><time>2012-06-16T03:54:27Z</time></trkpt><trkpt lat="31.6869953647" lon="34.9470911734"><ele>274.11</ele><time>2012-06-16T03:54:43Z</time></trkpt><trkpt lat="31.6870393697" lon="34.9471976236"><ele>273.63</ele><time>2012-06-16T03:54:59Z</time></trkpt><trkpt lat="31.6870304011" lon="34.9472332466"><ele>273.15</ele><time>2012-06-16T03:55:04Z</time></trkpt><trkpt lat="31.6870391183" lon="34.9473807681"><ele>273.63</ele><time>2012-06-16T03:55:20Z</time></trkpt><trkpt lat="31.6870908346" lon="34.9474594742"><ele>273.15</ele><time>2012-06-16T03:55:36Z</time></trkpt><trkpt lat="31.6870899126" lon="34.9474617373"><ele>272.67</ele><time>2012-06-16T03:55:55Z</time></trkpt><trkpt lat="31.6870933492" lon="34.9474738911"><ele>272.19</ele><time>2012-06-16T03:56:10Z</time></trkpt><trkpt lat="31.6870969534" lon="34.9474733882"><ele>272.67</ele><time>2012-06-16T03:56:37Z</time></trkpt><trkpt lat="31.6871001385" lon="34.9474747293"><ele>272.19</ele><time>2012-06-16T03:57:02Z</time></trkpt><trkpt lat="31.6871013120" lon="34.9474697839"><ele>272.19</ele><time>2012-06-16T03:57:19Z</time></trkpt><trkpt lat="31.6871013120" lon="34.9474733882"><ele>271.71</ele><time>2012-06-16T03:57:44Z</time></trkpt><trkpt lat="31.6871019825" lon="34.9474744778"><ele>271.71</ele><time>2012-06-16T03:58:17Z</time></trkpt><trkpt lat="31.6870981269" lon="34.9474719632"><ele>271.71</ele><time>2012-06-16T03:58:43Z</time></trkpt><trkpt lat="31.6870978754" lon="34.9474681076"><ele>270.75</ele><time>2012-06-16T03:59:13Z</time></trkpt><trkpt lat="31.6870986298" lon="34.9474826083"><ele>271.23</ele><time>2012-06-16T03:59:41Z</time></trkpt><trkpt lat="31.6870972887" lon="34.9474842008"><ele>271.23</ele><time>2012-06-16T04:00:11Z</time></trkpt><trkpt lat="31.6870999709" lon="34.9475044850"><ele>270.75</ele><time>2012-06-16T04:00:30Z</time></trkpt><trkpt lat="31.6871252842" lon="34.9475728814"><ele>270.75</ele><time>2012-06-16T04:00:44Z</time></trkpt><trkpt lat="31.6871539503" lon="34.9475721270"><ele>269.31</ele><time>2012-06-16T04:01:02Z</time></trkpt><trkpt lat="31.6871584766" lon="34.9475677684"><ele>269.31</ele><time>2012-06-16T04:01:20Z</time></trkpt><trkpt lat="31.6871626675" lon="34.9475704506"><ele>269.31</ele><time>2012-06-16T04:01:47Z</time></trkpt><trkpt lat="31.6871723905" lon="34.9475768209"><ele>268.83</ele><time>2012-06-16T04:02:15Z</time></trkpt><trkpt lat="31.6871711332" lon="34.9475758988"><ele>269.31</ele><time>2012-06-16T04:02:41Z</time></trkpt><trkpt lat="31.6871780902" lon="34.9475755636"><ele>268.83</ele><time>2012-06-16T04:03:10Z</time></trkpt><trkpt lat="31.6871794313" lon="34.9475800060"><ele>268.83</ele><time>2012-06-16T04:03:33Z</time></trkpt><trkpt lat="31.6871824488" lon="34.9475784134"><ele>268.83</ele><time>2012-06-16T04:04:01Z</time></trkpt><trkpt lat="31.6871811915" lon="34.9475797545"><ele>268.83</ele><time>2012-06-16T04:04:25Z</time></trkpt><trkpt lat="31.6871819459" lon="34.9475733843"><ele>269.31</ele><time>2012-06-16T04:04:38Z</time></trkpt><trkpt lat="31.6871672776" lon="34.9475726299"><ele>269.31</ele><time>2012-06-16T04:04:52Z</time></trkpt><trkpt lat="31.6871681996" lon="34.9475800060"><ele>269.31</ele><time>2012-06-16T04:05:00Z</time></trkpt><trkpt lat="31.6873239353" lon="34.9479022902"><ele>268.83</ele><time>2012-06-16T04:05:12Z</time></trkpt><trkpt lat="31.6873327363" lon="34.9479417689"><ele>268.83</ele><time>2012-06-16T04:05:13Z</time></trkpt><trkpt lat="31.6874788329" lon="34.9486466870"><ele>268.35</ele><time>2012-06-16T04:05:28Z</time></trkpt><trkpt lat="31.6875784937" lon="34.9493219331"><ele>268.35</ele><time>2012-06-16T04:05:44Z</time></trkpt><trkpt lat="31.6877181362" lon="34.9501734506"><ele>268.83</ele><time>2012-06-16T04:06:05Z</time></trkpt><trkpt lat="31.6878482234" lon="34.9509289116"><ele>268.83</ele><time>2012-06-16T04:06:22Z</time></trkpt><trkpt lat="31.6879952420" lon="34.9517736398"><ele>269.31</ele><time>2012-06-16T04:06:41Z</time></trkpt><trkpt lat="31.6881267540" lon="34.9525469542"><ele>269.79</ele><time>2012-06-16T04:06:59Z</time></trkpt><trkpt lat="31.6882579308" lon="34.9533395469"><ele>270.27</ele><time>2012-06-16T04:07:17Z</time></trkpt><trkpt lat="31.6883747745" lon="34.9541936629"><ele>270.75</ele><time>2012-06-16T04:07:37Z</time></trkpt><trkpt lat="31.6885056999" lon="34.9549728446"><ele>271.23</ele><time>2012-06-16T04:07:55Z</time></trkpt><trkpt lat="31.6886268184" lon="34.9557506852"><ele>271.71</ele><time>2012-06-16T04:08:13Z</time></trkpt><trkpt lat="31.6887778603" lon="34.9566514883"><ele>272.19</ele><time>2012-06-16T04:08:33Z</time></trkpt><trkpt lat="31.6889181733" lon="34.9575802032"><ele>273.15</ele><time>2012-06-16T04:08:54Z</time></trkpt><trkpt lat="31.6889724042" lon="34.9584475625"><ele>273.15</ele><time>2012-06-16T04:09:14Z</time></trkpt><trkpt lat="31.6889623459" lon="34.9591131695"><ele>274.11</ele><time>2012-06-16T04:09:30Z</time></trkpt><trkpt lat="31.6888449155" lon="34.9599615857"><ele>274.11</ele><time>2012-06-16T04:09:49Z</time></trkpt><trkpt lat="31.6887661256" lon="34.9602858815"><ele>275.07</ele><time>2012-06-16T04:09:57Z</time></trkpt><trkpt lat="31.6887388844" lon="34.9603022262"><ele>274.59</ele><time>2012-06-16T04:09:58Z</time></trkpt><trkpt lat="31.6885699891" lon="34.9604173098"><ele>275.07</ele><time>2012-06-16T04:10:06Z</time></trkpt><trkpt lat="31.6884653829" lon="34.9610446114"><ele>276.04</ele><time>2012-06-16T04:10:25Z</time></trkpt><trkpt lat="31.6883913707" lon="34.9614499602"><ele>276.52</ele><time>2012-06-16T04:10:38Z</time></trkpt><trkpt lat="31.6883047018" lon="34.9618441612"><ele>276.04</ele><time>2012-06-16T04:10:51Z</time></trkpt><trkpt lat="31.6881549172" lon="34.9622255377"><ele>276.04</ele><time>2012-06-16T04:11:04Z</time></trkpt><trkpt lat="31.6881369799" lon="34.9622563832"><ele>275.56</ele><time>2012-06-16T04:11:12Z</time></trkpt><trkpt lat="31.6881376505" lon="34.9622547068"><ele>275.56</ele><time>2012-06-16T04:11:24Z</time></trkpt><trkpt lat="31.6881173663" lon="34.9625193235"><ele>275.56</ele><time>2012-06-16T04:11:32Z</time></trkpt><trkpt lat="31.6879753768" lon="34.9630228244"><ele>275.07</ele><time>2012-06-16T04:11:41Z</time></trkpt><trkpt lat="31.6879540868" lon="34.9632195476"><ele>274.59</ele><time>2012-06-16T04:11:44Z</time></trkpt><trkpt lat="31.6879392508" lon="34.9632840883"><ele>274.59</ele><time>2012-06-16T04:11:45Z</time></trkpt><trkpt lat="31.6879213974" lon="34.9633438513"><ele>275.07</ele><time>2012-06-16T04:11:46Z</time></trkpt><trkpt lat="31.6878664959" lon="34.9635044485"><ele>275.07</ele><time>2012-06-16T04:11:49Z</time></trkpt><trkpt lat="31.6877344809" lon="34.9640309159"><ele>275.07</ele><time>2012-06-16T04:12:03Z</time></trkpt><trkpt lat="31.6876433697" lon="34.9644529447"><ele>275.56</ele><time>2012-06-16T04:12:17Z</time></trkpt><trkpt lat="31.6875209939" lon="34.9648587126"><ele>277.48</ele><time>2012-06-16T04:12:31Z</time></trkpt><trkpt lat="31.6873867996" lon="34.9651385006"><ele>279.40</ele><time>2012-06-16T04:12:43Z</time></trkpt><trkpt lat="31.6872645915" lon="34.9654601980"><ele>279.88</ele><time>2012-06-16T04:12:57Z</time></trkpt><trkpt lat="31.6871095262" lon="34.9657825660"><ele>280.84</ele><time>2012-06-16T04:13:11Z</time></trkpt><trkpt lat="31.6869802773" lon="34.9661617633"><ele>280.84</ele><time>2012-06-16T04:13:28Z</time></trkpt><trkpt lat="31.6869546287" lon="34.9662920181"><ele>281.32</ele><time>2012-06-16T04:13:33Z</time></trkpt><trkpt lat="31.6869475041" lon="34.9663145654"><ele>281.32</ele><time>2012-06-16T04:13:34Z</time></trkpt><trkpt lat="31.6869407147" lon="34.9663338438"><ele>281.32</ele><time>2012-06-16T04:13:35Z</time></trkpt><trkpt lat="31.6868728213" lon="34.9666483328"><ele>282.77</ele><time>2012-06-16T04:13:50Z</time></trkpt><trkpt lat="31.6868092027" lon="34.9669965170"><ele>282.77</ele><time>2012-06-16T04:14:05Z</time></trkpt><trkpt lat="31.6868347675" lon="34.9671634007"><ele>282.77</ele><time>2012-06-16T04:14:14Z</time></trkpt><trkpt lat="31.6868338455" lon="34.9671855289"><ele>282.28</ele><time>2012-06-16T04:14:15Z</time></trkpt><trkpt lat="31.6868376173" lon="34.9672106747"><ele>282.77</ele><time>2012-06-16T04:14:16Z</time></trkpt><trkpt lat="31.6868444066" lon="34.9672374129"><ele>282.77</ele><time>2012-06-16T04:14:17Z</time></trkpt><trkpt lat="31.6868528724" lon="34.9672641512"><ele>282.77</ele><time>2012-06-16T04:14:18Z</time></trkpt><trkpt lat="31.6868594941" lon="34.9672925659"><ele>282.28</ele><time>2012-06-16T04:14:19Z</time></trkpt><trkpt lat="31.6868640203" lon="34.9673213158"><ele>282.28</ele><time>2012-06-16T04:14:20Z</time></trkpt><trkpt lat="31.6868683789" lon="34.9673517421"><ele>281.80</ele><time>2012-06-16T04:14:21Z</time></trkpt><trkpt lat="31.6868761741" lon="34.9673809111"><ele>282.28</ele><time>2012-06-16T04:14:22Z</time></trkpt><trkpt lat="31.6868824605" lon="34.9674076494"><ele>282.28</ele><time>2012-06-16T04:14:23Z</time></trkpt><trkpt lat="31.6868853942" lon="34.9674328789"><ele>282.28</ele><time>2012-06-16T04:14:24Z</time></trkpt><trkpt lat="31.6868877411" lon="34.9674585275"><ele>282.28</ele><time>2012-06-16T04:14:25Z</time></trkpt><trkpt lat="31.6868914291" lon="34.9674871098"><ele>282.28</ele><time>2012-06-16T04:14:26Z</time></trkpt><trkpt lat="31.6868915129" lon="34.9675172847"><ele>282.28</ele><time>2012-06-16T04:14:27Z</time></trkpt><trkpt lat="31.6868862323" lon="34.9675483815"><ele>282.28</ele><time>2012-06-16T04:14:28Z</time></trkpt><trkpt lat="31.6868798621" lon="34.9675781373"><ele>282.28</ele><time>2012-06-16T04:14:29Z</time></trkpt><trkpt lat="31.6867479309" lon="34.9679550715"><ele>283.25</ele><time>2012-06-16T04:14:42Z</time></trkpt><trkpt lat="31.6866334341" lon="34.9683793634"><ele>284.69</ele><time>2012-06-16T04:14:57Z</time></trkpt><trkpt lat="31.6864452604" lon="34.9686899967"><ele>286.13</ele><time>2012-06-16T04:15:11Z</time></trkpt><trkpt lat="31.6862458549" lon="34.9690675177"><ele>285.65</ele><time>2012-06-16T04:15:26Z</time></trkpt><trkpt lat="31.6860755347" lon="34.9693634827"><ele>286.13</ele><time>2012-06-16T04:15:38Z</time></trkpt><trkpt lat="31.6859125905" lon="34.9696260039"><ele>286.13</ele><time>2012-06-16T04:15:50Z</time></trkpt><trkpt lat="31.6858493909" lon="34.9698931351"><ele>285.17</ele><time>2012-06-16T04:15:57Z</time></trkpt><trkpt lat="31.6858351417" lon="34.9699221365"><ele>285.17</ele><time>2012-06-16T04:15:58Z</time></trkpt><trkpt lat="31.6858213115" lon="34.9699495453"><ele>285.17</ele><time>2012-06-16T04:15:59Z</time></trkpt><trkpt lat="31.6858079005" lon="34.9699776247"><ele>284.69</ele><time>2012-06-16T04:16:00Z</time></trkpt><trkpt lat="31.6857914720" lon="34.9700024351"><ele>285.17</ele><time>2012-06-16T04:16:01Z</time></trkpt><trkpt lat="31.6857735347" lon="34.9700238090"><ele>285.17</ele><time>2012-06-16T04:16:02Z</time></trkpt><trkpt lat="31.6857543401" lon="34.9700453505"><ele>285.65</ele><time>2012-06-16T04:16:03Z</time></trkpt><trkpt lat="31.6857380792" lon="34.9700668920"><ele>284.69</ele><time>2012-06-16T04:16:04Z</time></trkpt><trkpt lat="31.6857212316" lon="34.9700886011"><ele>285.17</ele><time>2012-06-16T04:16:05Z</time></trkpt><trkpt lat="31.6857028753" lon="34.9701118190"><ele>284.69</ele><time>2012-06-16T04:16:06Z</time></trkpt><trkpt lat="31.6856464650" lon="34.9701839034"><ele>284.21</ele><time>2012-06-16T04:16:10Z</time></trkpt><trkpt lat="31.6856385022" lon="34.9701900221"><ele>284.21</ele><time>2012-06-16T04:16:11Z</time></trkpt><trkpt lat="31.6856063996" lon="34.9702221248"><ele>284.69</ele><time>2012-06-16T04:16:23Z</time></trkpt><trkpt lat="31.6853823513" lon="34.9704218656"><ele>285.17</ele><time>2012-06-16T04:16:36Z</time></trkpt><trkpt lat="31.6851173993" lon="34.9705344345"><ele>286.13</ele><time>2012-06-16T04:16:47Z</time></trkpt><trkpt lat="31.6848387849" lon="34.9708763324"><ele>287.09</ele><time>2012-06-16T04:17:00Z</time></trkpt><trkpt lat="31.6846800316" lon="34.9712618161"><ele>286.13</ele><time>2012-06-16T04:17:11Z</time></trkpt><trkpt lat="31.6845039278" lon="34.9716882873"><ele>288.53</ele><time>2012-06-16T04:17:25Z</time></trkpt><trkpt lat="31.6844662093" lon="34.9718587752"><ele>291.42</ele><time>2012-06-16T04:17:34Z</time></trkpt><trkpt lat="31.6844623536" lon="34.9719284289"><ele>291.90</ele><time>2012-06-16T04:17:38Z</time></trkpt><trkpt lat="31.6844250541" lon="34.9721817300"><ele>293.82</ele><time>2012-06-16T04:17:53Z</time></trkpt><trkpt lat="31.6844253056" lon="34.9721979070"><ele>294.30</ele><time>2012-06-16T04:18:00Z</time></trkpt><trkpt lat="31.6844247188" lon="34.9722086359"><ele>294.30</ele><time>2012-06-16T04:18:02Z</time></trkpt><trkpt lat="31.6844154987" lon="34.9722860847"><ele>294.30</ele><time>2012-06-16T04:18:06Z</time></trkpt><trkpt lat="31.6844465118" lon="34.9726890028"><ele>295.26</ele><time>2012-06-16T04:18:22Z</time></trkpt><trkpt lat="31.6845394671" lon="34.9731073435"><ele>294.30</ele><time>2012-06-16T04:18:36Z</time></trkpt><trkpt lat="31.6844451707" lon="34.9734074157"><ele>295.26</ele><time>2012-06-16T04:18:47Z</time></trkpt><trkpt lat="31.6843477730" lon="34.9737232458"><ele>295.26</ele><time>2012-06-16T04:18:58Z</time></trkpt><trkpt lat="31.6841510497" lon="34.9739985075"><ele>296.22</ele><time>2012-06-16T04:19:10Z</time></trkpt><trkpt lat="31.6839923803" lon="34.9743447639"><ele>296.70</ele><time>2012-06-16T04:19:26Z</time></trkpt><trkpt lat="31.6838809010" lon="34.9747694749"><ele>295.26</ele><time>2012-06-16T04:19:39Z</time></trkpt><trkpt lat="31.6837349720" lon="34.9752345029"><ele>296.22</ele><time>2012-06-16T04:19:56Z</time></trkpt><trkpt lat="31.6835765541" lon="34.9757518340"><ele>297.18</ele><time>2012-06-16T04:20:14Z</time></trkpt><trkpt lat="31.6833475605" lon="34.9761560094"><ele>298.15</ele><time>2012-06-16T04:20:30Z</time></trkpt><trkpt lat="31.6830267850" lon="34.9764513038"><ele>300.07</ele><time>2012-06-16T04:20:46Z</time></trkpt><trkpt lat="31.6827582289" lon="34.9767709058"><ele>301.03</ele><time>2012-06-16T04:21:02Z</time></trkpt><trkpt lat="31.6825412214" lon="34.9772267975"><ele>300.55</ele><time>2012-06-16T04:21:16Z</time></trkpt><trkpt lat="31.6822632775" lon="34.9776634946"><ele>300.07</ele><time>2012-06-16T04:21:31Z</time></trkpt><trkpt lat="31.6819503810" lon="34.9780340586"><ele>300.55</ele><time>2012-06-16T04:21:46Z</time></trkpt><trkpt lat="31.6816122551" lon="34.9783554208"><ele>301.51</ele><time>2012-06-16T04:22:01Z</time></trkpt><trkpt lat="31.6811507475" lon="34.9786643777"><ele>303.43</ele><time>2012-06-16T04:22:18Z</time></trkpt><trkpt lat="31.6808515973" lon="34.9791533779"><ele>303.91</ele><time>2012-06-16T04:22:33Z</time></trkpt><trkpt lat="31.6806125455" lon="34.9795984570"><ele>304.39</ele><time>2012-06-16T04:22:48Z</time></trkpt><trkpt lat="31.6805288102" lon="34.9799600523"><ele>303.91</ele><time>2012-06-16T04:23:00Z</time></trkpt><trkpt lat="31.6806564666" lon="34.9800537620"><ele>302.95</ele><time>2012-06-16T04:23:05Z</time></trkpt><trkpt lat="31.6807148047" lon="34.9800636526"><ele>301.99</ele><time>2012-06-16T04:23:07Z</time></trkpt><trkpt lat="31.6808819398" lon="34.9801234156"><ele>299.59</ele><time>2012-06-16T04:23:18Z</time></trkpt><trkpt lat="31.6809036490" lon="34.9801197276"><ele>299.11</ele><time>2012-06-16T04:23:36Z</time></trkpt><trkpt lat="31.6810464766" lon="34.9799942505"><ele>298.63</ele><time>2012-06-16T04:23:43Z</time></trkpt><trkpt lat="31.6810877156" lon="34.9799863715"><ele>298.63</ele><time>2012-06-16T04:23:44Z</time></trkpt><trkpt lat="31.6811330616" lon="34.9799823482"><ele>298.15</ele><time>2012-06-16T04:23:45Z</time></trkpt><trkpt lat="31.6811836045" lon="34.9799815100"><ele>298.15</ele><time>2012-06-16T04:23:46Z</time></trkpt><trkpt lat="31.6812396795" lon="34.9799882993"><ele>297.18</ele><time>2012-06-16T04:23:47Z</time></trkpt><trkpt lat="31.6812995262" lon="34.9800009560"><ele>297.18</ele><time>2012-06-16T04:23:48Z</time></trkpt><trkpt lat="31.6818674840" lon="34.9803317897"><ele>294.30</ele><time>2012-06-16T04:23:57Z</time></trkpt><trkpt lat="31.6826077737" lon="34.9808817264"><ele>290.94</ele><time>2012-06-16T04:24:09Z</time></trkpt><trkpt lat="31.6832765657" lon="34.9812697247"><ele>288.53</ele><time>2012-06-16T04:24:23Z</time></trkpt><trkpt lat="31.6833878774" lon="34.9813485146"><ele>287.57</ele><time>2012-06-16T04:24:27Z</time></trkpt><trkpt lat="31.6833846085" lon="34.9813798629"><ele>287.09</ele><time>2012-06-16T04:24:28Z</time></trkpt><trkpt lat="31.6833785735" lon="34.9814177491"><ele>287.09</ele><time>2012-06-16T04:24:29Z</time></trkpt><trkpt lat="31.6833657492" lon="34.9814580660"><ele>286.61</ele><time>2012-06-16T04:24:30Z</time></trkpt><trkpt lat="31.6833486501" lon="34.9814967904"><ele>287.09</ele><time>2012-06-16T04:24:31Z</time></trkpt><trkpt lat="31.6833262704" lon="34.9815335870"><ele>286.13</ele><time>2012-06-16T04:24:32Z</time></trkpt><trkpt lat="31.6832991131" lon="34.9815634266"><ele>286.61</ele><time>2012-06-16T04:24:33Z</time></trkpt><trkpt lat="31.6832654178" lon="34.9815825373"><ele>287.09</ele><time>2012-06-16T04:24:34Z</time></trkpt><trkpt lat="31.6832295433" lon="34.9815926794"><ele>287.09</ele><time>2012-06-16T04:24:35Z</time></trkpt><trkpt lat="31.6831958480" lon="34.9815955292"><ele>287.09</ele><time>2012-06-16T04:24:36Z</time></trkpt><trkpt lat="31.6831658408" lon="34.9815925956"><ele>287.57</ele><time>2012-06-16T04:24:37Z</time></trkpt><trkpt lat="31.6831395216" lon="34.9815894105"><ele>287.57</ele><time>2012-06-16T04:24:38Z</time></trkpt><trkpt lat="31.6828857176" lon="34.9814117141"><ele>289.01</ele><time>2012-06-16T04:24:51Z</time></trkpt><trkpt lat="31.6825848073" lon="34.9813590758"><ele>289.49</ele><time>2012-06-16T04:25:03Z</time></trkpt><trkpt lat="31.6821936239" lon="34.9815242831"><ele>290.46</ele><time>2012-06-16T04:25:18Z</time></trkpt><trkpt lat="31.6818235628" lon="34.9813842215"><ele>291.42</ele><time>2012-06-16T04:25:33Z</time></trkpt><trkpt lat="31.6815943178" lon="34.9810525496"><ele>292.86</ele><time>2012-06-16T04:25:47Z</time></trkpt><trkpt lat="31.6815307830" lon="34.9805532396"><ele>292.86</ele><time>2012-06-16T04:26:01Z</time></trkpt><trkpt lat="31.6812665015" lon="34.9802257586"><ele>295.26</ele><time>2012-06-16T04:26:15Z</time></trkpt><trkpt lat="31.6809592210" lon="34.9803317059"><ele>296.22</ele><time>2012-06-16T04:26:27Z</time></trkpt><trkpt lat="31.6806939337" lon="34.9808285851"><ele>296.70</ele><time>2012-06-16T04:26:42Z</time></trkpt><trkpt lat="31.6804148164" lon="34.9812869076"><ele>297.18</ele><time>2012-06-16T04:26:57Z</time></trkpt><trkpt lat="31.6801960487" lon="34.9819197413"><ele>297.67</ele><time>2012-06-16T04:27:14Z</time></trkpt><trkpt lat="31.6800102219" lon="34.9825438578"><ele>298.63</ele><time>2012-06-16T04:27:31Z</time></trkpt><trkpt lat="31.6798966471" lon="34.9830621947"><ele>299.59</ele><time>2012-06-16T04:27:45Z</time></trkpt><trkpt lat="31.6796855908" lon="34.9836245365"><ele>300.07</ele><time>2012-06-16T04:28:00Z</time></trkpt><trkpt lat="31.6794939805" lon="34.9842789955"><ele>301.51</ele><time>2012-06-16T04:28:17Z</time></trkpt><trkpt lat="31.6794573516" lon="34.9846006930"><ele>301.51</ele><time>2012-06-16T04:28:24Z</time></trkpt><trkpt lat="31.6794170346" lon="34.9848262500"><ele>301.03</ele><time>2012-06-16T04:28:29Z</time></trkpt><trkpt lat="31.6793579422" lon="34.9851653818"><ele>301.99</ele><time>2012-06-16T04:28:37Z</time></trkpt><trkpt lat="31.6793316230" lon="34.9853661284"><ele>301.51</ele><time>2012-06-16T04:28:41Z</time></trkpt><trkpt lat="31.6792641487" lon="34.9857116304"><ele>301.99</ele><time>2012-06-16T04:28:48Z</time></trkpt><trkpt lat="31.6790363286" lon="34.9863179773"><ele>302.95</ele><time>2012-06-16T04:29:03Z</time></trkpt><trkpt lat="31.6788424551" lon="34.9864799157"><ele>305.84</ele><time>2012-06-16T04:29:13Z</time></trkpt><trkpt lat="31.6786897369" lon="34.9867959134"><ele>305.84</ele><time>2012-06-16T04:29:25Z</time></trkpt><trkpt lat="31.6785842087" lon="34.9873210397"><ele>305.36</ele><time>2012-06-16T04:29:37Z</time></trkpt><trkpt lat="31.6785148066" lon="34.9875154998"><ele>304.88</ele><time>2012-06-16T04:29:41Z</time></trkpt><trkpt lat="31.6781060211" lon="34.9879438151"><ele>305.84</ele><time>2012-06-16T04:29:57Z</time></trkpt><trkpt lat="31.6776951402" lon="34.9885032233"><ele>306.32</ele><time>2012-06-16T04:30:15Z</time></trkpt><trkpt lat="31.6773821600" lon="34.9889583606"><ele>306.32</ele><time>2012-06-16T04:30:31Z</time></trkpt><trkpt lat="31.6772633046" lon="34.9892546609"><ele>306.32</ele><time>2012-06-16T04:30:39Z</time></trkpt><trkpt lat="31.6772116721" lon="34.9893964827"><ele>305.84</ele><time>2012-06-16T04:30:42Z</time></trkpt><trkpt lat="31.6771579441" lon="34.9894995801"><ele>304.88</ele><time>2012-06-16T04:30:44Z</time></trkpt><trkpt lat="31.6766023915" lon="34.9901655223"><ele>304.39</ele><time>2012-06-16T04:31:02Z</time></trkpt><trkpt lat="31.6760733258" lon="34.9905873835"><ele>306.32</ele><time>2012-06-16T04:31:20Z</time></trkpt><trkpt lat="31.6759089567" lon="34.9907119386"><ele>306.32</ele><time>2012-06-16T04:31:25Z</time></trkpt><trkpt lat="31.6753358860" lon="34.9909715261"><ele>305.84</ele><time>2012-06-16T04:31:41Z</time></trkpt><trkpt lat="31.6748572793" lon="34.9911127612"><ele>305.36</ele><time>2012-06-16T04:31:55Z</time></trkpt><trkpt lat="31.6744573787" lon="34.9912510626"><ele>307.28</ele><time>2012-06-16T04:32:08Z</time></trkpt><trkpt lat="31.6741097812" lon="34.9912721012"><ele>309.68</ele><time>2012-06-16T04:32:22Z</time></trkpt><trkpt lat="31.6738190129" lon="34.9913208000"><ele>313.05</ele><time>2012-06-16T04:32:33Z</time></trkpt><trkpt lat="31.6734100599" lon="34.9913850892"><ele>314.97</ele><time>2012-06-16T04:32:50Z</time></trkpt><trkpt lat="31.6730296891" lon="34.9914896116"><ele>316.41</ele><time>2012-06-16T04:33:06Z</time></trkpt><trkpt lat="31.6726556886" lon="34.9916421622"><ele>317.85</ele><time>2012-06-16T04:33:19Z</time></trkpt><trkpt lat="31.6723691113" lon="34.9917581677"><ele>319.30</ele><time>2012-06-16T04:33:32Z</time></trkpt><trkpt lat="31.6720443964" lon="34.9918922782"><ele>321.22</ele><time>2012-06-16T04:33:47Z</time></trkpt><trkpt lat="31.6719937697" lon="34.9919022527"><ele>321.22</ele><time>2012-06-16T04:33:50Z</time></trkpt><trkpt lat="31.6719143931" lon="34.9919194356"><ele>323.62</ele><time>2012-06-16T04:33:57Z</time></trkpt><trkpt lat="31.6718183365" lon="34.9920086190"><ele>323.14</ele><time>2012-06-16T04:34:03Z</time></trkpt><trkpt lat="31.6714775283" lon="34.9922765046"><ele>324.10</ele><time>2012-06-16T04:34:19Z</time></trkpt><trkpt lat="31.6711465269" lon="34.9924866389"><ele>325.06</ele><time>2012-06-16T04:34:33Z</time></trkpt><trkpt lat="31.6708314512" lon="34.9927787483"><ele>324.58</ele><time>2012-06-16T04:34:47Z</time></trkpt><trkpt lat="31.6704751365" lon="34.9931499828"><ele>323.14</ele><time>2012-06-16T04:35:00Z</time></trkpt><trkpt lat="31.6702867951" lon="34.9933807366"><ele>320.74</ele><time>2012-06-16T04:35:05Z</time></trkpt><trkpt lat="31.6701847874" lon="34.9936829042"><ele>319.30</ele><time>2012-06-16T04:35:10Z</time></trkpt><trkpt lat="31.6701774951" lon="34.9940348603"><ele>314.97</ele><time>2012-06-16T04:35:15Z</time></trkpt><trkpt lat="31.6699319892" lon="34.9947051611"><ele>313.53</ele><time>2012-06-16T04:35:27Z</time></trkpt><trkpt lat="31.6696810350" lon="34.9952747114"><ele>313.53</ele><time>2012-06-16T04:35:39Z</time></trkpt><trkpt lat="31.6695995629" lon="34.9954065587"><ele>313.05</ele><time>2012-06-16T04:35:42Z</time></trkpt><trkpt lat="31.6694692243" lon="34.9955954868"><ele>313.53</ele><time>2012-06-16T04:35:47Z</time></trkpt><trkpt lat="31.6693496983" lon="34.9957279209"><ele>313.53</ele><time>2012-06-16T04:35:51Z</time></trkpt><trkpt lat="31.6691186931" lon="34.9960127380"><ele>316.41</ele><time>2012-06-16T04:36:03Z</time></trkpt><trkpt lat="31.6689968202" lon="34.9964294862"><ele>316.89</ele><time>2012-06-16T04:36:17Z</time></trkpt><trkpt lat="31.6690294258" lon="34.9968450610"><ele>316.41</ele><time>2012-06-16T04:36:30Z</time></trkpt><trkpt lat="31.6691012587" lon="34.9970540218"><ele>315.45</ele><time>2012-06-16T04:36:34Z</time></trkpt><trkpt lat="31.6690818127" lon="34.9973770604"><ele>314.49</ele><time>2012-06-16T04:36:39Z</time></trkpt><trkpt lat="31.6690123267" lon="34.9975187983"><ele>314.97</ele><time>2012-06-16T04:36:42Z</time></trkpt><trkpt lat="31.6686584428" lon="34.9979953095"><ele>317.85</ele><time>2012-06-16T04:36:57Z</time></trkpt><trkpt lat="31.6683839355" lon="34.9982372113"><ele>320.26</ele><time>2012-06-16T04:37:09Z</time></trkpt><trkpt lat="31.6680662613" lon="34.9985448271"><ele>321.70</ele><time>2012-06-16T04:37:23Z</time></trkpt><trkpt lat="31.6677924246" lon="34.9989048298"><ele>322.66</ele><time>2012-06-16T04:37:38Z</time></trkpt><trkpt lat="31.6677786782" lon="34.9989194144"><ele>322.66</ele><time>2012-06-16T04:37:39Z</time></trkpt><trkpt lat="31.6677038278" lon="34.9990448914"><ele>323.14</ele><time>2012-06-16T04:37:51Z</time></trkpt><trkpt lat="31.6677091923" lon="34.9990466516"><ele>322.66</ele><time>2012-06-16T04:38:15Z</time></trkpt><trkpt lat="31.6677143052" lon="34.9990503397"><ele>322.66</ele><time>2012-06-16T04:38:40Z</time></trkpt><trkpt lat="31.6677190829" lon="34.9990506750"><ele>323.62</ele><time>2012-06-16T04:39:05Z</time></trkpt><trkpt lat="31.6677198373" lon="34.9990492500"><ele>323.14</ele><time>2012-06-16T04:39:34Z</time></trkpt><trkpt lat="31.6677209269" lon="34.9990474060"><ele>323.62</ele><time>2012-06-16T04:39:55Z</time></trkpt><trkpt lat="31.6677213460" lon="34.9990450591"><ele>323.62</ele><time>2012-06-16T04:40:17Z</time></trkpt><trkpt lat="31.6677238606" lon="34.9990449753"><ele>323.14</ele><time>2012-06-16T04:40:37Z</time></trkpt><trkpt lat="31.6677236930" lon="34.9990446400"><ele>323.62</ele><time>2012-06-16T04:41:05Z</time></trkpt><trkpt lat="31.6676558834" lon="34.9991744757"><ele>323.14</ele><time>2012-06-16T04:41:17Z</time></trkpt><trkpt lat="31.6676518600" lon="34.9992163014"><ele>322.66</ele><time>2012-06-16T04:41:29Z</time></trkpt><trkpt lat="31.6676508542" lon="34.9992297962"><ele>323.14</ele><time>2012-06-16T04:41:35Z</time></trkpt><trkpt lat="31.6676106211" lon="34.9993002042"><ele>322.66</ele><time>2012-06-16T04:41:40Z</time></trkpt><trkpt lat="31.6674567293" lon="34.9997777212"><ele>321.22</ele><time>2012-06-16T04:41:55Z</time></trkpt><trkpt lat="31.6673988104" lon="34.9999664817"><ele>320.26</ele><time>2012-06-16T04:41:59Z</time></trkpt><trkpt lat="31.6671524663" lon="35.0004236307"><ele>319.30</ele><time>2012-06-16T04:42:12Z</time></trkpt><trkpt lat="31.6668386478" lon="35.0007484294"><ele>320.74</ele><time>2012-06-16T04:42:26Z</time></trkpt><trkpt lat="31.6664173733" lon="35.0010757428"><ele>322.66</ele><time>2012-06-16T04:42:45Z</time></trkpt><trkpt lat="31.6664067283" lon="35.0011039060"><ele>322.66</ele><time>2012-06-16T04:42:54Z</time></trkpt><trkpt lat="31.6664018668" lon="35.0010973681"><ele>322.66</ele><time>2012-06-16T04:43:23Z</time></trkpt><trkpt lat="31.6663557664" lon="35.0011439715"><ele>322.66</ele><time>2012-06-16T04:43:44Z</time></trkpt><trkpt lat="31.6663125157" lon="35.0011787564"><ele>322.66</ele><time>2012-06-16T04:43:49Z</time></trkpt><trkpt lat="31.6662675887" lon="35.0012272038"><ele>322.66</ele><time>2012-06-16T04:43:53Z</time></trkpt><trkpt lat="31.6659526806" lon="35.0015631504"><ele>324.58</ele><time>2012-06-16T04:44:13Z</time></trkpt><trkpt lat="31.6656428855" lon="35.0019057188"><ele>325.06</ele><time>2012-06-16T04:44:29Z</time></trkpt><trkpt lat="31.6653463338" lon="35.0022284221"><ele>326.02</ele><time>2012-06-16T04:44:44Z</time></trkpt><trkpt lat="31.6650064476" lon="35.0025844853"><ele>326.99</ele><time>2012-06-16T04:45:02Z</time></trkpt><trkpt lat="31.6647264082" lon="35.0028994773"><ele>328.43</ele><time>2012-06-16T04:45:19Z</time></trkpt><trkpt lat="31.6644700896" lon="35.0032292213"><ele>329.39</ele><time>2012-06-16T04:45:35Z</time></trkpt><trkpt lat="31.6642933991" lon="35.0035256892"><ele>329.87</ele><time>2012-06-16T04:45:48Z</time></trkpt><trkpt lat="31.6640774813" lon="35.0039406773"><ele>330.35</ele><time>2012-06-16T04:46:04Z</time></trkpt><trkpt lat="31.6641713586" lon="35.0043280888"><ele>327.95</ele><time>2012-06-16T04:46:16Z</time></trkpt><trkpt lat="31.6641917266" lon="35.0044030230"><ele>326.99</ele><time>2012-06-16T04:46:18Z</time></trkpt><trkpt lat="31.6640737094" lon="35.0047533028"><ele>326.02</ele><time>2012-06-16T04:46:28Z</time></trkpt><trkpt lat="31.6638560314" lon="35.0052060094"><ele>327.95</ele><time>2012-06-16T04:46:43Z</time></trkpt><trkpt lat="31.6635464877" lon="35.0055458117"><ele>329.39</ele><time>2012-06-16T04:46:57Z</time></trkpt><trkpt lat="31.6634258721" lon="35.0059467182"><ele>328.43</ele><time>2012-06-16T04:47:09Z</time></trkpt><trkpt lat="31.6632563900" lon="35.0068450067"><ele>326.02</ele><time>2012-06-16T04:47:26Z</time></trkpt><trkpt lat="31.6632455774" lon="35.0069600902"><ele>326.02</ele><time>2012-06-16T04:47:28Z</time></trkpt><trkpt lat="31.6632160731" lon="35.0071826298"><ele>325.54</ele><time>2012-06-16T04:47:32Z</time></trkpt><trkpt lat="31.6631986387" lon="35.0072241202"><ele>325.54</ele><time>2012-06-16T04:47:33Z</time></trkpt><trkpt lat="31.6630102973" lon="35.0076722167"><ele>326.02</ele><time>2012-06-16T04:47:47Z</time></trkpt><trkpt lat="31.6629832238" lon="35.0076779164"><ele>326.50</ele><time>2012-06-16T04:47:48Z</time></trkpt><trkpt lat="31.6629574914" lon="35.0076733902"><ele>326.50</ele><time>2012-06-16T04:47:49Z</time></trkpt><trkpt lat="31.6629300825" lon="35.0076658465"><ele>326.50</ele><time>2012-06-16T04:47:50Z</time></trkpt><trkpt lat="31.6629009973" lon="35.0076604821"><ele>326.50</ele><time>2012-06-16T04:47:51Z</time></trkpt><trkpt lat="31.6628707387" lon="35.0076542795"><ele>326.50</ele><time>2012-06-16T04:47:52Z</time></trkpt><trkpt lat="31.6628411505" lon="35.0076420419"><ele>326.99</ele><time>2012-06-16T04:47:53Z</time></trkpt><trkpt lat="31.6628113110" lon="35.0076287985"><ele>326.99</ele><time>2012-06-16T04:47:54Z</time></trkpt><trkpt lat="31.6627807170" lon="35.0076187402"><ele>327.47</ele><time>2012-06-16T04:47:55Z</time></trkpt><trkpt lat="31.6623977479" lon="35.0074652676"><ele>328.91</ele><time>2012-06-16T04:48:08Z</time></trkpt><trkpt lat="31.6619693488" lon="35.0073147286"><ele>331.31</ele><time>2012-06-16T04:48:23Z</time></trkpt><trkpt lat="31.6616523452" lon="35.0072024111"><ele>332.75</ele><time>2012-06-16T04:48:36Z</time></trkpt><trkpt lat="31.6613584757" lon="35.0071001519"><ele>334.20</ele><time>2012-06-16T04:48:50Z</time></trkpt><trkpt lat="31.6609936953" lon="35.0069681369"><ele>336.60</ele><time>2012-06-16T04:49:05Z</time></trkpt><trkpt lat="31.6605672240" lon="35.0068205316"><ele>338.52</ele><time>2012-06-16T04:49:22Z</time></trkpt><trkpt lat="31.6603401583" lon="35.0067199487"><ele>340.44</ele><time>2012-06-16T04:49:35Z</time></trkpt><trkpt lat="31.6603269987" lon="35.0067068730"><ele>340.44</ele><time>2012-06-16T04:49:36Z</time></trkpt><trkpt lat="31.6603104863" lon="35.0066997483"><ele>340.44</ele><time>2012-06-16T04:49:37Z</time></trkpt><trkpt lat="31.6602174472" lon="35.0066671427"><ele>341.41</ele><time>2012-06-16T04:49:43Z</time></trkpt><trkpt lat="31.6600099113" lon="35.0066022668"><ele>342.85</ele><time>2012-06-16T04:49:56Z</time></trkpt><trkpt lat="31.6599953268" lon="35.0066025183"><ele>342.85</ele><time>2012-06-16T04:49:57Z</time></trkpt><trkpt lat="31.6599776410" lon="35.0066008419"><ele>342.85</ele><time>2012-06-16T04:49:58Z</time></trkpt><trkpt lat="31.6599588655" lon="35.0065947231"><ele>342.85</ele><time>2012-06-16T04:49:59Z</time></trkpt><trkpt lat="31.6599421017" lon="35.0065868441"><ele>342.85</ele><time>2012-06-16T04:50:00Z</time></trkpt><trkpt lat="31.6596143693" lon="35.0064757839"><ele>344.77</ele><time>2012-06-16T04:50:19Z</time></trkpt><trkpt lat="31.6593481600" lon="35.0063736923"><ele>346.21</ele><time>2012-06-16T04:50:35Z</time></trkpt><trkpt lat="31.6591369361" lon="35.0062514003"><ele>347.65</ele><time>2012-06-16T04:50:49Z</time></trkpt><trkpt lat="31.6589126363" lon="35.0060716085"><ele>350.06</ele><time>2012-06-16T04:51:04Z</time></trkpt><trkpt lat="31.6586595029" lon="35.0058473088"><ele>351.98</ele><time>2012-06-16T04:51:21Z</time></trkpt><trkpt lat="31.6584394779" lon="35.0056392699"><ele>353.42</ele><time>2012-06-16T04:51:35Z</time></trkpt><trkpt lat="31.6582673136" lon="35.0054835342"><ele>354.86</ele><time>2012-06-16T04:51:46Z</time></trkpt><trkpt lat="31.6582520586" lon="35.0054648425"><ele>354.86</ele><time>2012-06-16T04:51:47Z</time></trkpt><trkpt lat="31.6582379770" lon="35.0054519344"><ele>355.34</ele><time>2012-06-16T04:51:48Z</time></trkpt><trkpt lat="31.6582235601" lon="35.0054387748"><ele>354.86</ele><time>2012-06-16T04:51:49Z</time></trkpt><trkpt lat="31.6582085565" lon="35.0054251123"><ele>354.86</ele><time>2012-06-16T04:51:50Z</time></trkpt><trkpt lat="31.6581954807" lon="35.0054114498"><ele>354.86</ele><time>2012-06-16T04:51:51Z</time></trkpt><trkpt lat="31.6581828240" lon="35.0053989608"><ele>354.86</ele><time>2012-06-16T04:51:52Z</time></trkpt><trkpt lat="31.6581664793" lon="35.0053894054"><ele>355.34</ele><time>2012-06-16T04:51:53Z</time></trkpt><trkpt lat="31.6581538226" lon="35.0053800177"><ele>355.34</ele><time>2012-06-16T04:51:54Z</time></trkpt><trkpt lat="31.6581417527" lon="35.0053687021"><ele>355.83</ele><time>2012-06-16T04:51:55Z</time></trkpt><trkpt lat="31.6581294313" lon="35.0053547882"><ele>354.86</ele><time>2012-06-16T04:51:56Z</time></trkpt><trkpt lat="31.6579311993" lon="35.0051693805"><ele>356.79</ele><time>2012-06-16T04:52:11Z</time></trkpt><trkpt lat="31.6577189695" lon="35.0049729086"><ele>358.71</ele><time>2012-06-16T04:52:26Z</time></trkpt><trkpt lat="31.6575753037" lon="35.0048228726"><ele>360.15</ele><time>2012-06-16T04:52:36Z</time></trkpt><trkpt lat="31.6575584561" lon="35.0048121437"><ele>360.15</ele><time>2012-06-16T04:52:37Z</time></trkpt><trkpt lat="31.6575410217" lon="35.0047978107"><ele>360.63</ele><time>2012-06-16T04:52:38Z</time></trkpt><trkpt lat="31.6575271077" lon="35.0047817174"><ele>360.63</ele><time>2012-06-16T04:52:39Z</time></trkpt><trkpt lat="31.6575125232" lon="35.0047650374"><ele>361.11</ele><time>2012-06-16T04:52:40Z</time></trkpt><trkpt lat="31.6573016346" lon="35.0044363830"><ele>363.04</ele><time>2012-06-16T04:52:57Z</time></trkpt><trkpt lat="31.6571186576" lon="35.0041463692"><ele>365.44</ele><time>2012-06-16T04:53:12Z</time></trkpt><trkpt lat="31.6569351777" lon="35.0038060639"><ele>366.88</ele><time>2012-06-16T04:53:29Z</time></trkpt><trkpt lat="31.6567208525" lon="35.0034406129"><ele>367.36</ele><time>2012-06-16T04:53:46Z</time></trkpt><trkpt lat="31.6565307509" lon="35.0031197537"><ele>368.80</ele><time>2012-06-16T04:54:02Z</time></trkpt><trkpt lat="31.6563292500" lon="35.0027850643"><ele>370.24</ele><time>2012-06-16T04:54:19Z</time></trkpt><trkpt lat="31.6561946366" lon="35.0025276560"><ele>371.21</ele><time>2012-06-16T04:54:35Z</time></trkpt><trkpt lat="31.6561992466" lon="35.0025227107"><ele>371.21</ele><time>2012-06-16T04:55:00Z</time></trkpt><trkpt lat="31.6561957262" lon="35.0025119819"><ele>371.21</ele><time>2012-06-16T04:55:33Z</time></trkpt><trkpt lat="31.6561855003" lon="35.0025036000"><ele>371.69</ele><time>2012-06-16T04:55:57Z</time></trkpt><trkpt lat="31.6561710835" lon="35.0024962239"><ele>371.69</ele><time>2012-06-16T04:55:58Z</time></trkpt><trkpt lat="31.6561576724" lon="35.0024818908"><ele>371.69</ele><time>2012-06-16T04:55:59Z</time></trkpt><trkpt lat="31.6561473627" lon="35.0024649594"><ele>371.69</ele><time>2012-06-16T04:56:00Z</time></trkpt><trkpt lat="31.6561355442" lon="35.0024470221"><ele>371.69</ele><time>2012-06-16T04:56:01Z</time></trkpt><trkpt lat="31.6559397429" lon="35.0020746142"><ele>373.13</ele><time>2012-06-16T04:56:17Z</time></trkpt><trkpt lat="31.6557965800" lon="35.0017885398"><ele>374.09</ele><time>2012-06-16T04:56:33Z</time></trkpt><trkpt lat="31.6557405051" lon="35.0016111787"><ele>374.57</ele><time>2012-06-16T04:56:47Z</time></trkpt><trkpt lat="31.6556882020" lon="35.0013529323"><ele>375.53</ele><time>2012-06-16T04:57:02Z</time></trkpt><trkpt lat="31.6556455381" lon="35.0010919198"><ele>376.49</ele><time>2012-06-16T04:57:18Z</time></trkpt><trkpt lat="31.6556171235" lon="35.0007922668"><ele>376.97</ele><time>2012-06-16T04:57:33Z</time></trkpt><trkpt lat="31.6556144413" lon="35.0004733354"><ele>376.97</ele><time>2012-06-16T04:57:51Z</time></trkpt><trkpt lat="31.6556219012" lon="35.0001235586"><ele>376.49</ele><time>2012-06-16T04:58:08Z</time></trkpt><trkpt lat="31.6556089930" lon="34.9998128414"><ele>376.49</ele><time>2012-06-16T04:58:22Z</time></trkpt><trkpt lat="31.6555870324" lon="34.9996023718"><ele>376.97</ele><time>2012-06-16T04:58:35Z</time></trkpt><trkpt lat="31.6555851884" lon="34.9996053055"><ele>377.45</ele><time>2012-06-16T04:58:52Z</time></trkpt><trkpt lat="31.6555875354" lon="34.9996057246"><ele>376.97</ele><time>2012-06-16T04:59:20Z</time></trkpt><trkpt lat="31.6555479728" lon="34.9995037168"><ele>377.45</ele><time>2012-06-16T04:59:40Z</time></trkpt><trkpt lat="31.6554005351" lon="34.9992634915"><ele>379.38</ele><time>2012-06-16T04:59:53Z</time></trkpt><trkpt lat="31.6551976930" lon="34.9990888964"><ele>382.26</ele><time>2012-06-16T05:00:07Z</time></trkpt><trkpt lat="31.6550069209" lon="34.9988441449"><ele>384.18</ele><time>2012-06-16T05:00:24Z</time></trkpt><trkpt lat="31.6549834516" lon="34.9987612478"><ele>384.66</ele><time>2012-06-16T05:00:37Z</time></trkpt><trkpt lat="31.6549836192" lon="34.9987637624"><ele>384.18</ele><time>2012-06-16T05:01:12Z</time></trkpt><trkpt lat="31.6549806017" lon="34.9987641815"><ele>385.15</ele><time>2012-06-16T05:01:45Z</time></trkpt><trkpt lat="31.6549632512" lon="34.9987081904"><ele>385.15</ele><time>2012-06-16T05:02:01Z</time></trkpt><trkpt lat="31.6549590603" lon="34.9986869842"><ele>385.15</ele><time>2012-06-16T05:02:32Z</time></trkpt><trkpt lat="31.6549465712" lon="34.9986397102"><ele>385.63</ele><time>2012-06-16T05:02:36Z</time></trkpt><trkpt lat="31.6549451463" lon="34.9986268021"><ele>385.15</ele><time>2012-06-16T05:02:37Z</time></trkpt><trkpt lat="31.6549126245" lon="34.9985327572"><ele>386.11</ele><time>2012-06-16T05:02:45Z</time></trkpt><trkpt lat="31.6549065895" lon="34.9985205196"><ele>386.11</ele><time>2012-06-16T05:02:46Z</time></trkpt><trkpt lat="31.6549039073" lon="34.9985084496"><ele>386.11</ele><time>2012-06-16T05:02:47Z</time></trkpt><trkpt lat="31.6548920050" lon="34.9983735848"><ele>387.07</ele><time>2012-06-16T05:02:58Z</time></trkpt><trkpt lat="31.6548935138" lon="34.9983585812"><ele>387.55</ele><time>2012-06-16T05:02:59Z</time></trkpt><trkpt lat="31.6548955254" lon="34.9983449187"><ele>387.55</ele><time>2012-06-16T05:03:00Z</time></trkpt><trkpt lat="31.6548951901" lon="34.9983295798"><ele>387.07</ele><time>2012-06-16T05:03:01Z</time></trkpt><trkpt lat="31.6548957769" lon="34.9983139895"><ele>387.55</ele><time>2012-06-16T05:03:02Z</time></trkpt><trkpt lat="31.6548973694" lon="34.9982966390"><ele>387.55</ele><time>2012-06-16T05:03:03Z</time></trkpt><trkpt lat="31.6548983753" lon="34.9982781988"><ele>388.03</ele><time>2012-06-16T05:03:04Z</time></trkpt><trkpt lat="31.6548969503" lon="34.9982618541"><ele>388.51</ele><time>2012-06-16T05:03:05Z</time></trkpt><trkpt lat="31.6548935976" lon="34.9982465152"><ele>388.03</ele><time>2012-06-16T05:03:06Z</time></trkpt><trkpt lat="31.6548852995" lon="34.9981570803"><ele>388.99</ele><time>2012-06-16T05:03:11Z</time></trkpt><trkpt lat="31.6548874788" lon="34.9981383886"><ele>388.99</ele><time>2012-06-16T05:03:12Z</time></trkpt><trkpt lat="31.6548891552" lon="34.9981194455"><ele>388.99</ele><time>2012-06-16T05:03:13Z</time></trkpt><trkpt lat="31.6548909154" lon="34.9979417492"><ele>389.47</ele><time>2012-06-16T05:03:23Z</time></trkpt><trkpt lat="31.6548886523" lon="34.9979239795"><ele>389.47</ele><time>2012-06-16T05:03:24Z</time></trkpt><trkpt lat="31.6548844613" lon="34.9978881050"><ele>390.43</ele><time>2012-06-16T05:03:26Z</time></trkpt><trkpt lat="31.6549023986" lon="34.9976165313"><ele>392.36</ele><time>2012-06-16T05:03:41Z</time></trkpt><trkpt lat="31.6548915859" lon="34.9973316304"><ele>393.32</ele><time>2012-06-16T05:03:57Z</time></trkpt><trkpt lat="31.6549000517" lon="34.9970622361"><ele>394.28</ele><time>2012-06-16T05:04:11Z</time></trkpt><trkpt lat="31.6549012251" lon="34.9968049116"><ele>395.72</ele><time>2012-06-16T05:04:25Z</time></trkpt><trkpt lat="31.6549016442" lon="34.9967861362"><ele>396.20</ele><time>2012-06-16T05:04:26Z</time></trkpt><trkpt lat="31.6549068410" lon="34.9964808673"><ele>397.64</ele><time>2012-06-16T05:04:44Z</time></trkpt><trkpt lat="31.6549102776" lon="34.9963743333"><ele>398.12</ele><time>2012-06-16T05:04:50Z</time></trkpt><trkpt lat="31.6549127083" lon="34.9963570666"><ele>398.12</ele><time>2012-06-16T05:04:51Z</time></trkpt><trkpt lat="31.6549021471" lon="34.9963212758"><ele>398.12</ele><time>2012-06-16T05:04:54Z</time></trkpt><trkpt lat="31.6548928432" lon="34.9963097088"><ele>398.12</ele><time>2012-06-16T05:04:55Z</time></trkpt><trkpt lat="31.6548879817" lon="34.9962964654"><ele>398.12</ele><time>2012-06-16T05:04:56Z</time></trkpt><trkpt lat="31.6548894905" lon="34.9962747563"><ele>398.12</ele><time>2012-06-16T05:04:58Z</time></trkpt><trkpt lat="31.6549099423" lon="34.9961941224"><ele>399.08</ele><time>2012-06-16T05:05:06Z</time></trkpt><trkpt lat="31.6549078468" lon="34.9961660430"><ele>398.60</ele><time>2012-06-16T05:05:08Z</time></trkpt><trkpt lat="31.6549110319" lon="34.9961502012"><ele>398.60</ele><time>2012-06-16T05:05:09Z</time></trkpt><trkpt lat="31.6549137142" lon="34.9961336888"><ele>399.08</ele><time>2012-06-16T05:05:10Z</time></trkpt><trkpt lat="31.6549166478" lon="34.9961164221"><ele>398.60</ele><time>2012-06-16T05:05:11Z</time></trkpt><trkpt lat="31.6549190786" lon="34.9960978143"><ele>399.08</ele><time>2012-06-16T05:05:12Z</time></trkpt><trkpt lat="31.6549189109" lon="34.9960807152"><ele>399.57</ele><time>2012-06-16T05:05:13Z</time></trkpt><trkpt lat="31.6549189948" lon="34.9960632809"><ele>399.57</ele><time>2012-06-16T05:05:14Z</time></trkpt><trkpt lat="31.6549171507" lon="34.9960451759"><ele>399.08</ele><time>2012-06-16T05:05:15Z</time></trkpt><trkpt lat="31.6549146362" lon="34.9960279930"><ele>399.57</ele><time>2012-06-16T05:05:16Z</time></trkpt><trkpt lat="31.6549131274" lon="34.9960086308"><ele>399.57</ele><time>2012-06-16T05:05:17Z</time></trkpt><trkpt lat="31.6549144685" lon="34.9959897716"><ele>399.57</ele><time>2012-06-16T05:05:18Z</time></trkpt><trkpt lat="31.6549173184" lon="34.9959710799"><ele>400.05</ele><time>2012-06-16T05:05:19Z</time></trkpt><trkpt lat="31.6549153067" lon="34.9959542323"><ele>399.57</ele><time>2012-06-16T05:05:20Z</time></trkpt><trkpt lat="31.6549159773" lon="34.9959404860"><ele>399.57</ele><time>2012-06-16T05:05:21Z</time></trkpt><trkpt lat="31.6549158096" lon="34.9959271587"><ele>399.57</ele><time>2012-06-16T05:05:22Z</time></trkpt><trkpt lat="31.6549122054" lon="34.9959153403"><ele>400.53</ele><time>2012-06-16T05:05:23Z</time></trkpt><trkpt lat="31.6549122054" lon="34.9959005881"><ele>400.05</ele><time>2012-06-16T05:05:24Z</time></trkpt><trkpt lat="31.6549154744" lon="34.9958834052"><ele>400.05</ele><time>2012-06-16T05:05:25Z</time></trkpt><trkpt lat="31.6549166478" lon="34.9958659708"><ele>400.53</ele><time>2012-06-16T05:05:26Z</time></trkpt><trkpt lat="31.6549158935" lon="34.9958471954"><ele>400.53</ele><time>2012-06-16T05:05:27Z</time></trkpt><trkpt lat="31.6549187433" lon="34.9957932159"><ele>401.01</ele><time>2012-06-16T05:05:30Z</time></trkpt><trkpt lat="31.6549138818" lon="34.9955080636"><ele>402.45</ele><time>2012-06-16T05:05:45Z</time></trkpt><trkpt lat="31.6548833717" lon="34.9953138549"><ele>402.45</ele><time>2012-06-16T05:05:55Z</time></trkpt><trkpt lat="31.6548792645" lon="34.9952969234"><ele>402.45</ele><time>2012-06-16T05:05:56Z</time></trkpt><trkpt lat="31.6548684519" lon="34.9952421058"><ele>403.89</ele><time>2012-06-16T05:05:59Z</time></trkpt><trkpt lat="31.6547853872" lon="34.9949727114"><ele>405.33</ele><time>2012-06-16T05:06:14Z</time></trkpt><trkpt lat="31.6547775082" lon="34.9949527625"><ele>405.33</ele><time>2012-06-16T05:06:15Z</time></trkpt><trkpt lat="31.6547688749" lon="34.9949318077"><ele>405.33</ele><time>2012-06-16T05:06:16Z</time></trkpt><trkpt lat="31.6547590680" lon="34.9949134514"><ele>405.81</ele><time>2012-06-16T05:06:17Z</time></trkpt><trkpt lat="31.6547499318" lon="34.9948966037"><ele>405.81</ele><time>2012-06-16T05:06:18Z</time></trkpt><trkpt lat="31.6546213534" lon="34.9946561269"><ele>406.77</ele><time>2012-06-16T05:06:33Z</time></trkpt><trkpt lat="31.6545650270" lon="34.9944927637"><ele>407.74</ele><time>2012-06-16T05:06:43Z</time></trkpt><trkpt lat="31.6545579862" lon="34.9944832921"><ele>407.74</ele><time>2012-06-16T05:06:44Z</time></trkpt><trkpt lat="31.6545292363" lon="34.9944492616"><ele>407.74</ele><time>2012-06-16T05:06:48Z</time></trkpt><trkpt lat="31.6545176692" lon="34.9944434781"><ele>408.22</ele><time>2012-06-16T05:06:49Z</time></trkpt><trkpt lat="31.6545107123" lon="34.9944397062"><ele>408.22</ele><time>2012-06-16T05:07:01Z</time></trkpt><trkpt lat="31.6545142327" lon="34.9944304861"><ele>407.74</ele><time>2012-06-16T05:07:34Z</time></trkpt><trkpt lat="31.6545102093" lon="34.9944306538"><ele>407.74</ele><time>2012-06-16T05:08:02Z</time></trkpt><trkpt lat="31.6545081977" lon="34.9944451544"><ele>407.26</ele><time>2012-06-16T05:08:19Z</time></trkpt><trkpt lat="31.6545056831" lon="34.9944487587"><ele>406.77</ele><time>2012-06-16T05:08:48Z</time></trkpt><trkpt lat="31.6545033362" lon="34.9944499321"><ele>406.77</ele><time>2012-06-16T05:09:22Z</time></trkpt><trkpt lat="31.6544975527" lon="34.9944570567"><ele>406.77</ele><time>2012-06-16T05:09:57Z</time></trkpt><trkpt lat="31.6545004863" lon="34.9944640975"><ele>406.77</ele><time>2012-06-16T05:10:36Z</time></trkpt><trkpt lat="31.6544953734" lon="34.9944640137"><ele>406.29</ele><time>2012-06-16T05:11:08Z</time></trkpt><trkpt lat="31.6544840578" lon="34.9944654386"><ele>406.77</ele><time>2012-06-16T05:11:50Z</time></trkpt><trkpt lat="31.6544812918" lon="34.9944659416"><ele>407.26</ele><time>2012-06-16T05:12:26Z</time></trkpt><trkpt lat="31.6544782743" lon="34.9944694620"><ele>407.26</ele><time>2012-06-16T05:13:02Z</time></trkpt><trkpt lat="31.6544786934" lon="34.9944668636"><ele>407.74</ele><time>2012-06-16T05:13:31Z</time></trkpt><trkpt lat="31.6544791963" lon="34.9944676179"><ele>407.26</ele><time>2012-06-16T05:14:04Z</time></trkpt><trkpt lat="31.6544788610" lon="34.9944656063"><ele>407.26</ele><time>2012-06-16T05:14:37Z</time></trkpt><trkpt lat="31.6544822976" lon="34.9944636784"><ele>407.26</ele><time>2012-06-16T05:15:12Z</time></trkpt><trkpt lat="31.6544830520" lon="34.9944625050"><ele>407.26</ele><time>2012-06-16T05:15:48Z</time></trkpt><trkpt lat="31.6544864886" lon="34.9944666121"><ele>407.74</ele><time>2012-06-16T05:16:22Z</time></trkpt><trkpt lat="31.6544941999" lon="34.9944704678"><ele>407.26</ele><time>2012-06-16T05:16:57Z</time></trkpt><trkpt lat="31.6544886678" lon="34.9944681209"><ele>407.26</ele><time>2012-06-16T05:17:33Z</time></trkpt><trkpt lat="31.6544907633" lon="34.9944670312"><ele>407.26</ele><time>2012-06-16T05:17:58Z</time></trkpt><trkpt lat="31.6544973012" lon="34.9944651872"><ele>407.26</ele><time>2012-06-16T05:18:31Z</time></trkpt><trkpt lat="31.6544975527" lon="34.9944640975"><ele>407.74</ele><time>2012-06-16T05:19:06Z</time></trkpt><trkpt lat="31.6544983070" lon="34.9944646843"><ele>407.74</ele><time>2012-06-16T05:19:36Z</time></trkpt><trkpt lat="31.6544943675" lon="34.9944639299"><ele>407.26</ele><time>2012-06-16T05:20:05Z</time></trkpt><trkpt lat="31.6544950381" lon="34.9944647681"><ele>407.74</ele><time>2012-06-16T05:20:33Z</time></trkpt><trkpt lat="31.6544978879" lon="34.9944497645"><ele>408.22</ele><time>2012-06-16T05:20:47Z</time></trkpt><trkpt lat="31.6545081977" lon="34.9944454897"><ele>408.22</ele><time>2012-06-16T05:21:11Z</time></trkpt><trkpt lat="31.6544817109" lon="34.9943963718"><ele>408.22</ele><time>2012-06-16T05:21:24Z</time></trkpt><trkpt lat="31.6544784419" lon="34.9943829607"><ele>408.70</ele><time>2012-06-16T05:21:25Z</time></trkpt><trkpt lat="31.6544699762" lon="34.9943693820"><ele>408.70</ele><time>2012-06-16T05:21:26Z</time></trkpt><trkpt lat="31.6543284897" lon="34.9940970540"><ele>409.18</ele><time>2012-06-16T05:21:40Z</time></trkpt><trkpt lat="31.6540635377" lon="34.9935997557"><ele>409.18</ele><time>2012-06-16T05:21:57Z</time></trkpt><trkpt lat="31.6536915489" lon="34.9929011241"><ele>405.81</ele><time>2012-06-16T05:22:10Z</time></trkpt><trkpt lat="31.6533504054" lon="34.9923077691"><ele>402.45</ele><time>2012-06-16T05:22:21Z</time></trkpt><trkpt lat="31.6532900557" lon="34.9921972957"><ele>401.49</ele><time>2012-06-16T05:22:23Z</time></trkpt><trkpt lat="31.6531698592" lon="34.9918500334"><ele>399.08</ele><time>2012-06-16T05:22:33Z</time></trkpt><trkpt lat="31.6532655805" lon="34.9915868416"><ele>398.12</ele><time>2012-06-16T05:22:45Z</time></trkpt><trkpt lat="31.6532962583" lon="34.9912364781"><ele>397.64</ele><time>2012-06-16T05:22:53Z</time></trkpt><trkpt lat="31.6532884631" lon="34.9911212269"><ele>396.20</ele><time>2012-06-16T05:22:55Z</time></trkpt><trkpt lat="31.6534129344" lon="34.9903358426"><ele>393.32</ele><time>2012-06-16T05:23:05Z</time></trkpt><trkpt lat="31.6536472924" lon="34.9894146714"><ele>389.95</ele><time>2012-06-16T05:23:15Z</time></trkpt><trkpt lat="31.6537062172" lon="34.9892317783"><ele>389.47</ele><time>2012-06-16T05:23:17Z</time></trkpt><trkpt lat="31.6542665474" lon="34.9883727171"><ele>387.07</ele><time>2012-06-16T05:23:28Z</time></trkpt><trkpt lat="31.6548148077" lon="34.9874398950"><ele>384.18</ele><time>2012-06-16T05:23:40Z</time></trkpt><trkpt lat="31.6550702043" lon="34.9864062387"><ele>383.22</ele><time>2012-06-16T05:23:53Z</time></trkpt><trkpt lat="31.6550976969" lon="34.9860075954"><ele>381.30</ele><time>2012-06-16T05:23:58Z</time></trkpt><trkpt lat="31.6550893988" lon="34.9859190825"><ele>381.30</ele><time>2012-06-16T05:23:59Z</time></trkpt><trkpt lat="31.6550742276" lon="34.9858286418"><ele>380.34</ele><time>2012-06-16T05:24:00Z</time></trkpt><trkpt lat="31.6550496686" lon="34.9857371952"><ele>379.86</ele><time>2012-06-16T05:24:01Z</time></trkpt><trkpt lat="31.6550193261" lon="34.9856406357"><ele>379.86</ele><time>2012-06-16T05:24:02Z</time></trkpt><trkpt lat="31.6549849603" lon="34.9855460040"><ele>378.90</ele><time>2012-06-16T05:24:03Z</time></trkpt><trkpt lat="31.6546669509" lon="34.9848137610"><ele>377.45</ele><time>2012-06-16T05:24:12Z</time></trkpt><trkpt lat="31.6546171624" lon="34.9847490527"><ele>377.45</ele><time>2012-06-16T05:24:13Z</time></trkpt><trkpt lat="31.6544641927" lon="34.9845566042"><ele>376.01</ele><time>2012-06-16T05:24:16Z</time></trkpt><trkpt lat="31.6537140124" lon="34.9836175796"><ele>373.13</ele><time>2012-06-16T05:24:31Z</time></trkpt><trkpt lat="31.6536287684" lon="34.9834818766"><ele>372.65</ele><time>2012-06-16T05:24:33Z</time></trkpt><trkpt lat="31.6531466413" lon="34.9825161975"><ele>370.24</ele><time>2012-06-16T05:24:47Z</time></trkpt><trkpt lat="31.6525791865" lon="34.9815493450"><ele>367.36</ele><time>2012-06-16T05:25:02Z</time></trkpt><trkpt lat="31.6525420547" lon="34.9814792722"><ele>367.36</ele><time>2012-06-16T05:25:03Z</time></trkpt><trkpt lat="31.6525128018" lon="34.9814036675"><ele>366.88</ele><time>2012-06-16T05:25:04Z</time></trkpt><trkpt lat="31.6524946131" lon="34.9813247100"><ele>366.88</ele><time>2012-06-16T05:25:05Z</time></trkpt><trkpt lat="31.6524909250" lon="34.9812438246"><ele>366.40</ele><time>2012-06-16T05:25:06Z</time></trkpt><trkpt lat="31.6525022406" lon="34.9811625201"><ele>366.40</ele><time>2012-06-16T05:25:07Z</time></trkpt><trkpt lat="31.6525190882" lon="34.9810829759"><ele>366.40</ele><time>2012-06-16T05:25:08Z</time></trkpt><trkpt lat="31.6525305714" lon="34.9810039345"><ele>366.40</ele><time>2012-06-16T05:25:09Z</time></trkpt><trkpt lat="31.6525869817" lon="34.9805244897"><ele>364.96</ele><time>2012-06-16T05:25:15Z</time></trkpt><trkpt lat="31.6526091937" lon="34.9804476276"><ele>364.96</ele><time>2012-06-16T05:25:16Z</time></trkpt><trkpt lat="31.6529663466" lon="34.9794281367"><ele>363.52</ele><time>2012-06-16T05:25:31Z</time></trkpt><trkpt lat="31.6531598847" lon="34.9787353724"><ele>362.07</ele><time>2012-06-16T05:25:42Z</time></trkpt><trkpt lat="31.6532555223" lon="34.9783190433"><ele>361.11</ele><time>2012-06-16T05:25:49Z</time></trkpt><trkpt lat="31.6532635689" lon="34.9781882856"><ele>361.11</ele><time>2012-06-16T05:25:51Z</time></trkpt><trkpt lat="31.6532584559" lon="34.9781256728"><ele>361.11</ele><time>2012-06-16T05:25:52Z</time></trkpt><trkpt lat="31.6532438714" lon="34.9780686758"><ele>361.11</ele><time>2012-06-16T05:25:53Z</time></trkpt><trkpt lat="31.6530475672" lon="34.9774836190"><ele>359.19</ele><time>2012-06-16T05:26:03Z</time></trkpt><trkpt lat="31.6528304759" lon="34.9764471129"><ele>357.75</ele><time>2012-06-16T05:26:19Z</time></trkpt><trkpt lat="31.6528079286" lon="34.9763899483"><ele>357.27</ele><time>2012-06-16T05:26:20Z</time></trkpt><trkpt lat="31.6527870577" lon="34.9763332028"><ele>357.27</ele><time>2012-06-16T05:26:21Z</time></trkpt><trkpt lat="31.6527615767" lon="34.9762795586"><ele>357.27</ele><time>2012-06-16T05:26:22Z</time></trkpt><trkpt lat="31.6527340002" lon="34.9762281775"><ele>357.27</ele><time>2012-06-16T05:26:23Z</time></trkpt><trkpt lat="31.6524699703" lon="34.9758365750"><ele>355.83</ele><time>2012-06-16T05:26:31Z</time></trkpt><trkpt lat="31.6524143144" lon="34.9757203180"><ele>355.83</ele><time>2012-06-16T05:26:33Z</time></trkpt><trkpt lat="31.6523978859" lon="34.9756557774"><ele>355.34</ele><time>2012-06-16T05:26:34Z</time></trkpt><trkpt lat="31.6523890849" lon="34.9755871296"><ele>355.34</ele><time>2012-06-16T05:26:35Z</time></trkpt><trkpt lat="31.6523867380" lon="34.9755162187"><ele>355.34</ele><time>2012-06-16T05:26:36Z</time></trkpt><trkpt lat="31.6523898393" lon="34.9754457269"><ele>354.86</ele><time>2012-06-16T05:26:37Z</time></trkpt><trkpt lat="31.6523959581" lon="34.9753748998"><ele>354.86</ele><time>2012-06-16T05:26:38Z</time></trkpt><trkpt lat="31.6524060164" lon="34.9753066711"><ele>354.38</ele><time>2012-06-16T05:26:39Z</time></trkpt><trkpt lat="31.6524704732" lon="34.9750519451"><ele>353.90</ele><time>2012-06-16T05:26:43Z</time></trkpt><trkpt lat="31.6529932525" lon="34.9740525708"><ele>351.50</ele><time>2012-06-16T05:27:01Z</time></trkpt><trkpt lat="31.6530648340" lon="34.9737231620"><ele>350.54</ele><time>2012-06-16T05:27:09Z</time></trkpt><trkpt lat="31.6530831065" lon="34.9732163083"><ele>350.06</ele><time>2012-06-16T05:27:20Z</time></trkpt><trkpt lat="31.6530902311" lon="34.9731692020"><ele>350.54</ele><time>2012-06-16T05:27:21Z</time></trkpt><trkpt lat="31.6533084959" lon="34.9724574946"><ele>349.10</ele><time>2012-06-16T05:27:37Z</time></trkpt><trkpt lat="31.6533587035" lon="34.9723098055"><ele>349.10</ele><time>2012-06-16T05:27:40Z</time></trkpt><trkpt lat="31.6536941472" lon="34.9715957511"><ele>347.65</ele><time>2012-06-16T05:27:55Z</time></trkpt><trkpt lat="31.6537539102" lon="34.9712272827"><ele>347.65</ele><time>2012-06-16T05:28:02Z</time></trkpt><trkpt lat="31.6537579335" lon="34.9711805955"><ele>347.65</ele><time>2012-06-16T05:28:03Z</time></trkpt><trkpt lat="31.6539057903" lon="34.9707223568"><ele>347.65</ele><time>2012-06-16T05:28:17Z</time></trkpt><trkpt lat="31.6540900245" lon="34.9703978095"><ele>347.17</ele><time>2012-06-16T05:28:30Z</time></trkpt><trkpt lat="31.6543132346" lon="34.9699207116"><ele>346.69</ele><time>2012-06-16T05:28:47Z</time></trkpt><trkpt lat="31.6544675454" lon="34.9694057275"><ele>346.21</ele><time>2012-06-16T05:29:02Z</time></trkpt><trkpt lat="31.6545226146" lon="34.9689097703"><ele>345.73</ele><time>2012-06-16T05:29:18Z</time></trkpt><trkpt lat="31.6544993129" lon="34.9683921039"><ele>342.85</ele><time>2012-06-16T05:29:33Z</time></trkpt><trkpt lat="31.6544796154" lon="34.9682275672"><ele>342.37</ele><time>2012-06-16T05:29:45Z</time></trkpt><trkpt lat="31.6544551402" lon="34.9682189338"><ele>341.89</ele><time>2012-06-16T05:30:03Z</time></trkpt><trkpt lat="31.6544326767" lon="34.9682214484"><ele>342.37</ele><time>2012-06-16T05:30:04Z</time></trkpt><trkpt lat="31.6539366357" lon="34.9683216121"><ele>341.89</ele><time>2012-06-16T05:30:16Z</time></trkpt><trkpt lat="31.6538865119" lon="34.9683343526"><ele>342.37</ele><time>2012-06-16T05:30:17Z</time></trkpt><trkpt lat="31.6534777265" lon="34.9683621805"><ele>345.25</ele><time>2012-06-16T05:30:28Z</time></trkpt><trkpt lat="31.6530886386" lon="34.9683378730"><ele>348.62</ele><time>2012-06-16T05:30:43Z</time></trkpt><trkpt lat="31.6528107785" lon="34.9682942033"><ele>351.50</ele><time>2012-06-16T05:30:56Z</time></trkpt><trkpt lat="31.6525649372" lon="34.9682274833"><ele>352.94</ele><time>2012-06-16T05:31:08Z</time></trkpt><trkpt lat="31.6521580797" lon="34.9681423232"><ele>354.86</ele><time>2012-06-16T05:31:24Z</time></trkpt><trkpt lat="31.6519425809" lon="34.9680793751"><ele>356.31</ele><time>2012-06-16T05:31:34Z</time></trkpt><trkpt lat="31.6519248951" lon="34.9680756871"><ele>356.79</ele><time>2012-06-16T05:31:35Z</time></trkpt><trkpt lat="31.6519080475" lon="34.9680713285"><ele>356.31</ele><time>2012-06-16T05:31:36Z</time></trkpt><trkpt lat="31.6518912837" lon="34.9680647068"><ele>356.79</ele><time>2012-06-16T05:31:37Z</time></trkpt><trkpt lat="31.6518746875" lon="34.9680595938"><ele>356.79</ele><time>2012-06-16T05:31:38Z</time></trkpt><trkpt lat="31.6516715940" lon="34.9680050276"><ele>358.71</ele><time>2012-06-16T05:31:50Z</time></trkpt><trkpt lat="31.6514101624" lon="34.9678818975"><ele>360.63</ele><time>2012-06-16T05:32:06Z</time></trkpt><trkpt lat="31.6510955896" lon="34.9676903710"><ele>362.07</ele><time>2012-06-16T05:32:22Z</time></trkpt><trkpt lat="31.6507636663" lon="34.9675103277"><ele>364.96</ele><time>2012-06-16T05:32:39Z</time></trkpt><trkpt lat="31.6506339982" lon="34.9674608745"><ele>366.40</ele><time>2012-06-16T05:32:51Z</time></trkpt><trkpt lat="31.6506294720" lon="34.9674487207"><ele>366.40</ele><time>2012-06-16T05:33:06Z</time></trkpt><trkpt lat="31.6506267060" lon="34.9674526602"><ele>365.92</ele><time>2012-06-16T05:33:25Z</time></trkpt><trkpt lat="31.6506141331" lon="34.9674420990"><ele>365.44</ele><time>2012-06-16T05:34:00Z</time></trkpt><trkpt lat="31.6506190784" lon="34.9674416799"><ele>365.92</ele><time>2012-06-16T05:34:37Z</time></trkpt><trkpt lat="31.6506175697" lon="34.9674373213"><ele>365.44</ele><time>2012-06-16T05:35:12Z</time></trkpt><trkpt lat="31.6506225150" lon="34.9674398359"><ele>365.92</ele><time>2012-06-16T05:35:49Z</time></trkpt><trkpt lat="31.6506166477" lon="34.9674433563"><ele>365.44</ele><time>2012-06-16T05:36:27Z</time></trkpt><trkpt lat="31.6506132111" lon="34.9674436077"><ele>365.92</ele><time>2012-06-16T05:37:05Z</time></trkpt><trkpt lat="31.6506117024" lon="34.9674366508"><ele>365.92</ele><time>2012-06-16T05:37:37Z</time></trkpt><trkpt lat="31.6506204195" lon="34.9674400873"><ele>366.40</ele><time>2012-06-16T05:38:13Z</time></trkpt><trkpt lat="31.6506279632" lon="34.9674388301"><ele>366.40</ele><time>2012-06-16T05:38:50Z</time></trkpt><trkpt lat="31.6506297234" lon="34.9674368184"><ele>366.40</ele><time>2012-06-16T05:39:23Z</time></trkpt><trkpt lat="31.6506247781" lon="34.9674379081"><ele>366.88</ele><time>2012-06-16T05:40:01Z</time></trkpt><trkpt lat="31.6506257001" lon="34.9674463738"><ele>367.36</ele><time>2012-06-16T05:40:31Z</time></trkpt><trkpt lat="31.6506131273" lon="34.9674496427"><ele>367.36</ele><time>2012-06-16T05:40:43Z</time></trkpt><trkpt lat="31.6506061703" lon="34.9674493074"><ele>367.36</ele><time>2012-06-16T05:40:44Z</time></trkpt><trkpt lat="31.6505937651" lon="34.9674511515"><ele>367.84</ele><time>2012-06-16T05:40:45Z</time></trkpt><trkpt lat="31.6505684517" lon="34.9674456194"><ele>367.36</ele><time>2012-06-16T05:40:47Z</time></trkpt><trkpt lat="31.6505554598" lon="34.9674351420"><ele>367.84</ele><time>2012-06-16T05:40:48Z</time></trkpt><trkpt lat="31.6505413782" lon="34.9674270954"><ele>367.84</ele><time>2012-06-16T05:40:49Z</time></trkpt><trkpt lat="31.6505253688" lon="34.9674234912"><ele>367.84</ele><time>2012-06-16T05:40:50Z</time></trkpt><trkpt lat="31.6505091917" lon="34.9674171209"><ele>368.80</ele><time>2012-06-16T05:40:51Z</time></trkpt><trkpt lat="31.6504936852" lon="34.9674087390"><ele>368.80</ele><time>2012-06-16T05:40:52Z</time></trkpt><trkpt lat="31.6502581537" lon="34.9673312064"><ele>370.73</ele><time>2012-06-16T05:41:06Z</time></trkpt><trkpt lat="31.6500228737" lon="34.9671571981"><ele>373.13</ele><time>2012-06-16T05:41:21Z</time></trkpt><trkpt lat="31.6498400643" lon="34.9669230077"><ele>374.09</ele><time>2012-06-16T05:41:37Z</time></trkpt><trkpt lat="31.6496621165" lon="34.9666760769"><ele>374.09</ele><time>2012-06-16T05:41:54Z</time></trkpt><trkpt lat="31.6493565962" lon="34.9664868973"><ele>373.13</ele><time>2012-06-16T05:42:08Z</time></trkpt><trkpt lat="31.6490057297" lon="34.9662940297"><ele>370.24</ele><time>2012-06-16T05:42:22Z</time></trkpt><trkpt lat="31.6487876326" lon="34.9661148246"><ele>368.32</ele><time>2012-06-16T05:42:30Z</time></trkpt><trkpt lat="31.6487625707" lon="34.9660792015"><ele>368.32</ele><time>2012-06-16T05:42:31Z</time></trkpt><trkpt lat="31.6485229321" lon="34.9656093121"><ele>365.44</ele><time>2012-06-16T05:42:39Z</time></trkpt><trkpt lat="31.6483596526" lon="34.9650846049"><ele>362.07</ele><time>2012-06-16T05:42:45Z</time></trkpt><trkpt lat="31.6482027434" lon="34.9644369353"><ele>358.71</ele><time>2012-06-16T05:42:51Z</time></trkpt><trkpt lat="31.6480153240" lon="34.9635362998"><ele>356.31</ele><time>2012-06-16T05:43:01Z</time></trkpt><trkpt lat="31.6478412319" lon="34.9627251830"><ele>354.86</ele><time>2012-06-16T05:43:14Z</time></trkpt><trkpt lat="31.6479520407" lon="34.9618396349"><ele>351.50</ele><time>2012-06-16T05:43:28Z</time></trkpt><trkpt lat="31.6479722410" lon="34.9614669755"><ele>349.10</ele><time>2012-06-16T05:43:32Z</time></trkpt><trkpt lat="31.6480808705" lon="34.9600801058"><ele>346.69</ele><time>2012-06-16T05:43:48Z</time></trkpt><trkpt lat="31.6480728239" lon="34.9591975752"><ele>345.73</ele><time>2012-06-16T05:44:00Z</time></trkpt><trkpt lat="31.6482619196" lon="34.9585041404"><ele>344.29</ele><time>2012-06-16T05:44:13Z</time></trkpt><trkpt lat="31.6482662782" lon="34.9584536813"><ele>343.81</ele><time>2012-06-16T05:44:14Z</time></trkpt><trkpt lat="31.6482252907" lon="34.9581349175"><ele>343.33</ele><time>2012-06-16T05:44:20Z</time></trkpt><trkpt lat="31.6481069382" lon="34.9578217696"><ele>342.85</ele><time>2012-06-16T05:44:26Z</time></trkpt><trkpt lat="31.6480919346" lon="34.9577657785"><ele>342.85</ele><time>2012-06-16T05:44:27Z</time></trkpt><trkpt lat="31.6477905214" lon="34.9566696770"><ele>340.92</ele><time>2012-06-16T05:44:46Z</time></trkpt><trkpt lat="31.6475134157" lon="34.9559212569"><ele>340.44</ele><time>2012-06-16T05:45:01Z</time></trkpt><trkpt lat="31.6473420057" lon="34.9555280618"><ele>339.48</ele><time>2012-06-16T05:45:10Z</time></trkpt><trkpt lat="31.6470698453" lon="34.9549390655"><ele>338.52</ele><time>2012-06-16T05:45:25Z</time></trkpt><trkpt lat="31.6469599586" lon="34.9546674080"><ele>338.04</ele><time>2012-06-16T05:45:37Z</time></trkpt><trkpt lat="31.6469746269" lon="34.9546022806"><ele>337.56</ele><time>2012-06-16T05:45:58Z</time></trkpt><trkpt lat="31.6469861940" lon="34.9546020292"><ele>338.04</ele><time>2012-06-16T05:46:04Z</time></trkpt><trkpt lat="31.6469954140" lon="34.9545947369"><ele>338.04</ele><time>2012-06-16T05:46:05Z</time></trkpt><trkpt lat="31.6470044665" lon="34.9545837566"><ele>338.04</ele><time>2012-06-16T05:46:06Z</time></trkpt><trkpt lat="31.6470124293" lon="34.9545720220"><ele>338.04</ele><time>2012-06-16T05:46:07Z</time></trkpt><trkpt lat="31.6470208112" lon="34.9545589462"><ele>337.56</ele><time>2012-06-16T05:46:08Z</time></trkpt><trkpt lat="31.6470320430" lon="34.9545481335"><ele>338.04</ele><time>2012-06-16T05:46:09Z</time></trkpt><trkpt lat="31.6473109089" lon="34.9542272743"><ele>339.00</ele><time>2012-06-16T05:46:26Z</time></trkpt><trkpt lat="31.6475509666" lon="34.9539435469"><ele>340.44</ele><time>2012-06-16T05:46:41Z</time></trkpt><trkpt lat="31.6478816327" lon="34.9535710551"><ele>340.92</ele><time>2012-06-16T05:46:57Z</time></trkpt><trkpt lat="31.6483586468" lon="34.9531869963"><ele>339.96</ele><time>2012-06-16T05:47:15Z</time></trkpt><trkpt lat="31.6489218269" lon="34.9529629480"><ele>339.48</ele><time>2012-06-16T05:47:33Z</time></trkpt><trkpt lat="31.6494850069" lon="34.9527807254"><ele>338.52</ele><time>2012-06-16T05:47:49Z</time></trkpt><trkpt lat="31.6495646350" lon="34.9527439289"><ele>338.52</ele><time>2012-06-16T05:47:51Z</time></trkpt><trkpt lat="31.6496050358" lon="34.9527174421"><ele>338.52</ele><time>2012-06-16T05:47:52Z</time></trkpt><trkpt lat="31.6496435925" lon="34.9526807293"><ele>338.52</ele><time>2012-06-16T05:47:53Z</time></trkpt><trkpt lat="31.6496806405" lon="34.9526358861"><ele>338.52</ele><time>2012-06-16T05:47:54Z</time></trkpt><trkpt lat="31.6497159284" lon="34.9525819067"><ele>338.52</ele><time>2012-06-16T05:47:55Z</time></trkpt><trkpt lat="31.6497513000" lon="34.9525239039"><ele>338.52</ele><time>2012-06-16T05:47:56Z</time></trkpt><trkpt lat="31.6497830674" lon="34.9524586927"><ele>336.60</ele><time>2012-06-16T05:47:57Z</time></trkpt><trkpt lat="31.6498111468" lon="34.9523870274"><ele>336.12</ele><time>2012-06-16T05:47:58Z</time></trkpt><trkpt lat="31.6498977318" lon="34.9520813394"><ele>332.75</ele><time>2012-06-16T05:48:02Z</time></trkpt><trkpt lat="31.6499327682" lon="34.9519320577"><ele>331.79</ele><time>2012-06-16T05:48:04Z</time></trkpt><trkpt lat="31.6499937046" lon="34.9517255276"><ele>331.31</ele><time>2012-06-16T05:48:07Z</time></trkpt><trkpt lat="31.6500225384" lon="34.9516712967"><ele>330.83</ele><time>2012-06-16T05:48:08Z</time></trkpt><trkpt lat="31.6500571556" lon="34.9516218435"><ele>330.35</ele><time>2012-06-16T05:48:09Z</time></trkpt><trkpt lat="31.6500979755" lon="34.9515764974"><ele>330.35</ele><time>2012-06-16T05:48:10Z</time></trkpt><trkpt lat="31.6501408909" lon="34.9515395332"><ele>330.35</ele><time>2012-06-16T05:48:11Z</time></trkpt><trkpt lat="31.6501843929" lon="34.9515045807"><ele>329.87</ele><time>2012-06-16T05:48:12Z</time></trkpt><trkpt lat="31.6502271406" lon="34.9514682032"><ele>329.39</ele><time>2012-06-16T05:48:13Z</time></trkpt><trkpt lat="31.6502706427" lon="34.9514349271"><ele>329.87</ele><time>2012-06-16T05:48:14Z</time></trkpt><trkpt lat="31.6508113593" lon="34.9510632735"><ele>328.91</ele><time>2012-06-16T05:48:28Z</time></trkpt><trkpt lat="31.6508474853" lon="34.9510355294"><ele>328.43</ele><time>2012-06-16T05:48:29Z</time></trkpt><trkpt lat="31.6514561791" lon="34.9506305996"><ele>327.95</ele><time>2012-06-16T05:48:46Z</time></trkpt><trkpt lat="31.6519047786" lon="34.9503639713"><ele>328.91</ele><time>2012-06-16T05:49:02Z</time></trkpt><trkpt lat="31.6520352848" lon="34.9500656594"><ele>328.43</ele><time>2012-06-16T05:49:14Z</time></trkpt><trkpt lat="31.6519612726" lon="34.9497732986"><ele>327.47</ele><time>2012-06-16T05:49:19Z</time></trkpt><trkpt lat="31.6517358832" lon="34.9487986509"><ele>326.02</ele><time>2012-06-16T05:49:36Z</time></trkpt><trkpt lat="31.6515048780" lon="34.9477955885"><ele>325.06</ele><time>2012-06-16T05:49:55Z</time></trkpt><trkpt lat="31.6511757206" lon="34.9470420554"><ele>321.70</ele><time>2012-06-16T05:50:07Z</time></trkpt><trkpt lat="31.6510094237" lon="34.9463322759"><ele>321.22</ele><time>2012-06-16T05:50:19Z</time></trkpt><trkpt lat="31.6509813443" lon="34.9461271707"><ele>321.22</ele><time>2012-06-16T05:50:23Z</time></trkpt><trkpt lat="31.6509944201" lon="34.9459141027"><ele>320.74</ele><time>2012-06-16T05:50:27Z</time></trkpt><trkpt lat="31.6510074958" lon="34.9458595365"><ele>320.74</ele><time>2012-06-16T05:50:28Z</time></trkpt><trkpt lat="31.6511446238" lon="34.9455171358"><ele>320.26</ele><time>2012-06-16T05:50:35Z</time></trkpt><trkpt lat="31.6511789896" lon="34.9454785790"><ele>320.26</ele><time>2012-06-16T05:50:36Z</time></trkpt><trkpt lat="31.6512183007" lon="34.9454437103"><ele>320.26</ele><time>2012-06-16T05:50:37Z</time></trkpt><trkpt lat="31.6512615513" lon="34.9454147089"><ele>320.26</ele><time>2012-06-16T05:50:38Z</time></trkpt><trkpt lat="31.6513053887" lon="34.9453928322"><ele>320.26</ele><time>2012-06-16T05:50:39Z</time></trkpt><trkpt lat="31.6513492260" lon="34.9453745596"><ele>320.26</ele><time>2012-06-16T05:50:40Z</time></trkpt><trkpt lat="31.6518769506" lon="34.9452805147"><ele>321.70</ele><time>2012-06-16T05:50:55Z</time></trkpt><trkpt lat="31.6524791066" lon="34.9451683648"><ele>322.66</ele><time>2012-06-16T05:51:12Z</time></trkpt><trkpt lat="31.6527052503" lon="34.9449910875"><ele>322.66</ele><time>2012-06-16T05:51:19Z</time></trkpt><trkpt lat="31.6527816094" lon="34.9448762555"><ele>322.66</ele><time>2012-06-16T05:51:22Z</time></trkpt><trkpt lat="31.6529506724" lon="34.9446019158"><ele>321.70</ele><time>2012-06-16T05:51:28Z</time></trkpt><trkpt lat="31.6533421073" lon="34.9439383205"><ele>318.81</ele><time>2012-06-16T05:51:41Z</time></trkpt><trkpt lat="31.6539943870" lon="34.9433924071"><ele>314.97</ele><time>2012-06-16T05:51:53Z</time></trkpt><trkpt lat="31.6546618380" lon="34.9429841246"><ele>312.57</ele><time>2012-06-16T05:52:07Z</time></trkpt><trkpt lat="31.6548203398" lon="34.9428897444"><ele>312.09</ele><time>2012-06-16T05:52:19Z</time></trkpt><trkpt lat="31.6549272928" lon="34.9429086037"><ele>312.09</ele><time>2012-06-16T05:52:31Z</time></trkpt><trkpt lat="31.6551147122" lon="34.9429892376"><ele>313.05</ele><time>2012-06-16T05:52:44Z</time></trkpt><trkpt lat="31.6552903969" lon="34.9431086797"><ele>313.05</ele><time>2012-06-16T05:52:57Z</time></trkpt><trkpt lat="31.6555263475" lon="34.9432496633"><ele>313.05</ele><time>2012-06-16T05:53:11Z</time></trkpt><trkpt lat="31.6558666527" lon="34.9434306286"><ele>313.05</ele><time>2012-06-16T05:53:27Z</time></trkpt><trkpt lat="31.6559657268" lon="34.9435075745"><ele>313.05</ele><time>2012-06-16T05:53:32Z</time></trkpt><trkpt lat="31.6559860110" lon="34.9435177166"><ele>313.53</ele><time>2012-06-16T05:53:33Z</time></trkpt><trkpt lat="31.6562900227" lon="34.9435999431"><ele>313.05</ele><time>2012-06-16T05:53:48Z</time></trkpt><trkpt lat="31.6567361075" lon="34.9435281102"><ele>313.53</ele><time>2012-06-16T05:54:06Z</time></trkpt><trkpt lat="31.6571384389" lon="34.9433857854"><ele>313.53</ele><time>2012-06-16T05:54:19Z</time></trkpt><trkpt lat="31.6576695163" lon="34.9429723062"><ele>313.05</ele><time>2012-06-16T05:54:36Z</time></trkpt><trkpt lat="31.6578353103" lon="34.9428325798"><ele>312.57</ele><time>2012-06-16T05:54:47Z</time></trkpt><trkpt lat="31.6580546647" lon="34.9426486809"><ele>312.57</ele><time>2012-06-16T05:54:59Z</time></trkpt><trkpt lat="31.6582912859" lon="34.9421653803"><ele>312.09</ele><time>2012-06-16T05:55:14Z</time></trkpt><trkpt lat="31.6581700835" lon="34.9413881265"><ele>309.68</ele><time>2012-06-16T05:55:28Z</time></trkpt><trkpt lat="31.6581702512" lon="34.9405602459"><ele>305.84</ele><time>2012-06-16T05:55:38Z</time></trkpt><trkpt lat="31.6581999231" lon="34.9398731813"><ele>303.91</ele><time>2012-06-16T05:55:45Z</time></trkpt><trkpt lat="31.6582149267" lon="34.9397782981"><ele>304.39</ele><time>2012-06-16T05:55:46Z</time></trkpt><trkpt lat="31.6582368873" lon="34.9396881927"><ele>304.39</ele><time>2012-06-16T05:55:47Z</time></trkpt><trkpt lat="31.6582642123" lon="34.9396053795"><ele>304.39</ele><time>2012-06-16T05:55:48Z</time></trkpt><trkpt lat="31.6582922079" lon="34.9395282660"><ele>303.91</ele><time>2012-06-16T05:55:49Z</time></trkpt><trkpt lat="31.6586185992" lon="34.9387298897"><ele>302.95</ele><time>2012-06-16T05:56:02Z</time></trkpt><trkpt lat="31.6587534640" lon="34.9384946935"><ele>302.47</ele><time>2012-06-16T05:56:07Z</time></trkpt><trkpt lat="31.6593281273" lon="34.9377816450"><ele>300.55</ele><time>2012-06-16T05:56:22Z</time></trkpt><trkpt lat="31.6599744558" lon="34.9369155429"><ele>298.63</ele><time>2012-06-16T05:56:38Z</time></trkpt><trkpt lat="31.6604771186" lon="34.9361493532"><ele>295.74</ele><time>2012-06-16T05:56:51Z</time></trkpt><trkpt lat="31.6605203692" lon="34.9360898416"><ele>295.26</ele><time>2012-06-16T05:56:52Z</time></trkpt><trkpt lat="31.6606703214" lon="34.9359355308"><ele>295.26</ele><time>2012-06-16T05:56:55Z</time></trkpt><trkpt lat="31.6607304197" lon="34.9358970579"><ele>294.78</ele><time>2012-06-16T05:56:56Z</time></trkpt><trkpt lat="31.6607942898" lon="34.9358696491"><ele>294.78</ele><time>2012-06-16T05:56:57Z</time></trkpt><trkpt lat="31.6608574055" lon="34.9358520471"><ele>294.78</ele><time>2012-06-16T05:56:58Z</time></trkpt><trkpt lat="31.6609189287" lon="34.9358414859"><ele>294.78</ele><time>2012-06-16T05:56:59Z</time></trkpt><trkpt lat="31.6609794460" lon="34.9358388036"><ele>294.78</ele><time>2012-06-16T05:57:00Z</time></trkpt><trkpt lat="31.6610374488" lon="34.9358525500"><ele>294.30</ele><time>2012-06-16T05:57:01Z</time></trkpt><trkpt lat="31.6610930208" lon="34.9358744267"><ele>294.78</ele><time>2012-06-16T05:57:02Z</time></trkpt><trkpt lat="31.6611460783" lon="34.9358970579"><ele>294.78</ele><time>2012-06-16T05:57:03Z</time></trkpt><trkpt lat="31.6618820932" lon="34.9360425677"><ele>293.34</ele><time>2012-06-16T05:57:17Z</time></trkpt><trkpt lat="31.6626028530" lon="34.9362224434"><ele>292.86</ele><time>2012-06-16T05:57:31Z</time></trkpt><trkpt lat="31.6630962119" lon="34.9364018999"><ele>294.30</ele><time>2012-06-16T05:57:45Z</time></trkpt><trkpt lat="31.6632854752" lon="34.9364243634"><ele>294.78</ele><time>2012-06-16T05:57:50Z</time></trkpt><trkpt lat="31.6633254569" lon="34.9364069290"><ele>294.78</ele><time>2012-06-16T05:57:51Z</time></trkpt><trkpt lat="31.6633616667" lon="34.9363842979"><ele>294.78</ele><time>2012-06-16T05:57:52Z</time></trkpt><trkpt lat="31.6634279676" lon="34.9363218527"><ele>294.30</ele><time>2012-06-16T05:57:54Z</time></trkpt><trkpt lat="31.6634591483" lon="34.9362847209"><ele>294.78</ele><time>2012-06-16T05:57:55Z</time></trkpt><trkpt lat="31.6636557877" lon="34.9360464234"><ele>294.30</ele><time>2012-06-16T05:58:01Z</time></trkpt><trkpt lat="31.6641042195" lon="34.9356968980"><ele>295.26</ele><time>2012-06-16T05:58:12Z</time></trkpt><trkpt lat="31.6641447879" lon="34.9356595986"><ele>294.78</ele><time>2012-06-16T05:58:13Z</time></trkpt><trkpt lat="31.6641815007" lon="34.9356165994"><ele>294.30</ele><time>2012-06-16T05:58:14Z</time></trkpt><trkpt lat="31.6642141063" lon="34.9355700798"><ele>294.78</ele><time>2012-06-16T05:58:15Z</time></trkpt><trkpt lat="31.6642395034" lon="34.9355179444"><ele>294.78</ele><time>2012-06-16T05:58:16Z</time></trkpt><trkpt lat="31.6642601229" lon="34.9354618695"><ele>294.30</ele><time>2012-06-16T05:58:17Z</time></trkpt><trkpt lat="31.6642800719" lon="34.9354033638"><ele>293.82</ele><time>2012-06-16T05:58:18Z</time></trkpt><trkpt lat="31.6642973386" lon="34.9353404995"><ele>293.82</ele><time>2012-06-16T05:58:19Z</time></trkpt><trkpt lat="31.6643123422" lon="34.9352753721"><ele>293.82</ele><time>2012-06-16T05:58:20Z</time></trkpt><trkpt lat="31.6643245798" lon="34.9352048803"><ele>293.34</ele><time>2012-06-16T05:58:21Z</time></trkpt><trkpt lat="31.6643314529" lon="34.9351300299"><ele>293.34</ele><time>2012-06-16T05:58:22Z</time></trkpt><trkpt lat="31.6643347219" lon="34.9350499827"><ele>292.86</ele><time>2012-06-16T05:58:23Z</time></trkpt><trkpt lat="31.6645554174" lon="34.9341734033"><ele>289.49</ele><time>2012-06-16T05:58:33Z</time></trkpt><trkpt lat="31.6650116444" lon="34.9333174434"><ele>287.09</ele><time>2012-06-16T05:58:45Z</time></trkpt><trkpt lat="31.6653571464" lon="34.9324824382"><ele>286.61</ele><time>2012-06-16T05:58:59Z</time></trkpt><trkpt lat="31.6654746607" lon="34.9322491698"><ele>285.65</ele><time>2012-06-16T05:59:03Z</time></trkpt><trkpt lat="31.6655130498" lon="34.9321993813"><ele>285.65</ele><time>2012-06-16T05:59:04Z</time></trkpt><trkpt lat="31.6655549593" lon="34.9321532808"><ele>285.65</ele><time>2012-06-16T05:59:05Z</time></trkpt><trkpt lat="31.6656006407" lon="34.9321164005"><ele>285.17</ele><time>2012-06-16T05:59:06Z</time></trkpt><trkpt lat="31.6656500101" lon="34.9320853036"><ele>285.17</ele><time>2012-06-16T05:59:07Z</time></trkpt><trkpt lat="31.6657002177" lon="34.9320585653"><ele>285.17</ele><time>2012-06-16T05:59:08Z</time></trkpt><trkpt lat="31.6658974439" lon="34.9319805298"><ele>285.17</ele><time>2012-06-16T05:59:12Z</time></trkpt><trkpt lat="31.6659981105" lon="34.9319611676"><ele>284.69</ele><time>2012-06-16T05:59:14Z</time></trkpt><trkpt lat="31.6660491563" lon="34.9319578987"><ele>284.21</ele><time>2012-06-16T05:59:15Z</time></trkpt><trkpt lat="31.6664761305" lon="34.9320265464"><ele>283.25</ele><time>2012-06-16T05:59:23Z</time></trkpt><trkpt lat="31.6665301938" lon="34.9320504349"><ele>283.25</ele><time>2012-06-16T05:59:24Z</time></trkpt><trkpt lat="31.6665814072" lon="34.9320785142"><ele>282.77</ele><time>2012-06-16T05:59:25Z</time></trkpt><trkpt lat="31.6666302737" lon="34.9321105331"><ele>283.25</ele><time>2012-06-16T05:59:26Z</time></trkpt><trkpt lat="31.6666751169" lon="34.9321475811"><ele>282.77</ele><time>2012-06-16T05:59:27Z</time></trkpt><trkpt lat="31.6667152662" lon="34.9321909994"><ele>282.77</ele><time>2012-06-16T05:59:28Z</time></trkpt><trkpt lat="31.6667526495" lon="34.9322360102"><ele>282.77</ele><time>2012-06-16T05:59:29Z</time></trkpt><trkpt lat="31.6672009975" lon="34.9329271819"><ele>284.21</ele><time>2012-06-16T05:59:43Z</time></trkpt><trkpt lat="31.6674133949" lon="34.9332164414"><ele>285.17</ele><time>2012-06-16T05:59:50Z</time></trkpt><trkpt lat="31.6674506944" lon="34.9332472030"><ele>285.17</ele><time>2012-06-16T05:59:51Z</time></trkpt><trkpt lat="31.6680488270" lon="34.9337117281"><ele>284.21</ele><time>2012-06-16T06:00:04Z</time></trkpt><trkpt lat="31.6687960736" lon="34.9342609104"><ele>282.77</ele><time>2012-06-16T06:00:18Z</time></trkpt><trkpt lat="31.6695381235" lon="34.9346921593"><ele>280.36</ele><time>2012-06-16T06:00:32Z</time></trkpt><trkpt lat="31.6703188978" lon="34.9351443630"><ele>278.44</ele><time>2012-06-16T06:00:44Z</time></trkpt><trkpt lat="31.6705282778" lon="34.9353662319"><ele>278.44</ele><time>2012-06-16T06:00:48Z</time></trkpt><trkpt lat="31.6705678403" lon="34.9354287609"><ele>278.44</ele><time>2012-06-16T06:00:49Z</time></trkpt><trkpt lat="31.6706003621" lon="34.9354928825"><ele>278.44</ele><time>2012-06-16T06:00:50Z</time></trkpt><trkpt lat="31.6707383282" lon="34.9359310046"><ele>281.80</ele><time>2012-06-16T06:00:59Z</time></trkpt><trkpt lat="31.6710196249" lon="34.9364626687"><ele>282.77</ele><time>2012-06-16T06:01:14Z</time></trkpt><trkpt lat="31.6711150110" lon="34.9365764111"><ele>282.77</ele><time>2012-06-16T06:01:17Z</time></trkpt><trkpt lat="31.6711539868" lon="34.9366100226"><ele>282.77</ele><time>2012-06-16T06:01:18Z</time></trkpt><trkpt lat="31.6711919568" lon="34.9366370123"><ele>282.28</ele><time>2012-06-16T06:01:19Z</time></trkpt><trkpt lat="31.6714589205" lon="34.9368596356"><ele>279.40</ele><time>2012-06-16T06:01:30Z</time></trkpt><trkpt lat="31.6716071963" lon="34.9368129484"><ele>278.44</ele><time>2012-06-16T06:01:35Z</time></trkpt><trkpt lat="31.6716148239" lon="34.9367785826"><ele>278.92</ele><time>2012-06-16T06:01:36Z</time></trkpt><trkpt lat="31.6716155782" lon="34.9367500842"><ele>278.92</ele><time>2012-06-16T06:01:37Z</time></trkpt><trkpt lat="31.6716175061" lon="34.9367230106"><ele>278.92</ele><time>2012-06-16T06:01:38Z</time></trkpt><trkpt lat="31.6716247983" lon="34.9366995413"><ele>278.44</ele><time>2012-06-16T06:01:39Z</time></trkpt><trkpt lat="31.6716372874" lon="34.9366776645"><ele>278.44</ele><time>2012-06-16T06:01:40Z</time></trkpt><trkpt lat="31.6716531292" lon="34.9366552010"><ele>278.44</ele><time>2012-06-16T06:01:41Z</time></trkpt><trkpt lat="31.6716744192" lon="34.9366380181"><ele>278.44</ele><time>2012-06-16T06:01:42Z</time></trkpt><trkpt lat="31.6716990620" lon="34.9366255291"><ele>277.96</ele><time>2012-06-16T06:01:43Z</time></trkpt><trkpt lat="31.6717319191" lon="34.9366117828"><ele>277.48</ele><time>2012-06-16T06:01:44Z</time></trkpt><trkpt lat="31.6718131397" lon="34.9365836196"><ele>277.00</ele><time>2012-06-16T06:01:46Z</time></trkpt><trkpt lat="31.6718617547" lon="34.9365746509"><ele>276.52</ele><time>2012-06-16T06:01:47Z</time></trkpt><trkpt lat="31.6719148122" lon="34.9365735613"><ele>276.04</ele><time>2012-06-16T06:01:48Z</time></trkpt><trkpt lat="31.6719690431" lon="34.9365848769"><ele>275.56</ele><time>2012-06-16T06:01:49Z</time></trkpt><trkpt lat="31.6720179934" lon="34.9366105255"><ele>275.56</ele><time>2012-06-16T06:01:50Z</time></trkpt><trkpt lat="31.6720560472" lon="34.9366494175"><ele>275.07</ele><time>2012-06-16T06:01:51Z</time></trkpt><trkpt lat="31.6720859706" lon="34.9366947636"><ele>275.07</ele><time>2012-06-16T06:01:52Z</time></trkpt><trkpt lat="31.6721105296" lon="34.9367424566"><ele>275.07</ele><time>2012-06-16T06:01:53Z</time></trkpt><trkpt lat="31.6721299756" lon="34.9367933348"><ele>275.07</ele><time>2012-06-16T06:01:54Z</time></trkpt><trkpt lat="31.6721477453" lon="34.9368425366"><ele>274.59</ele><time>2012-06-16T06:01:55Z</time></trkpt><trkpt lat="31.6723253578" lon="34.9372756295"><ele>274.59</ele><time>2012-06-16T06:02:04Z</time></trkpt><trkpt lat="31.6723500006" lon="34.9373251665"><ele>274.59</ele><time>2012-06-16T06:02:05Z</time></trkpt><trkpt lat="31.6726779845" lon="34.9381751753"><ele>274.11</ele><time>2012-06-16T06:02:22Z</time></trkpt><trkpt lat="31.6727682576" lon="34.9384827074"><ele>274.11</ele><time>2012-06-16T06:02:29Z</time></trkpt><trkpt lat="31.6727833450" lon="34.9385272153"><ele>274.11</ele><time>2012-06-16T06:02:30Z</time></trkpt><trkpt lat="31.6730404180" lon="34.9391608872"><ele>275.07</ele><time>2012-06-16T06:02:46Z</time></trkpt><trkpt lat="31.6731730197" lon="34.9396539107"><ele>275.07</ele><time>2012-06-16T06:02:57Z</time></trkpt><trkpt lat="31.6731800605" lon="34.9397001788"><ele>275.07</ele><time>2012-06-16T06:02:58Z</time></trkpt><trkpt lat="31.6731851734" lon="34.9397490453"><ele>275.07</ele><time>2012-06-16T06:02:59Z</time></trkpt><trkpt lat="31.6731706727" lon="34.9404624291"><ele>273.63</ele><time>2012-06-16T06:03:12Z</time></trkpt><trkpt lat="31.6731827427" lon="34.9405102897"><ele>273.15</ele><time>2012-06-16T06:03:13Z</time></trkpt><trkpt lat="31.6731983330" lon="34.9405568093"><ele>273.63</ele><time>2012-06-16T06:03:14Z</time></trkpt><trkpt lat="31.6732173599" lon="34.9406001437"><ele>274.11</ele><time>2012-06-16T06:03:15Z</time></trkpt><trkpt lat="31.6732390691" lon="34.9406387843"><ele>274.11</ele><time>2012-06-16T06:03:16Z</time></trkpt><trkpt lat="31.6732637119" lon="34.9406718928"><ele>274.11</ele><time>2012-06-16T06:03:17Z</time></trkpt><trkpt lat="31.6732908692" lon="34.9406956136"><ele>274.11</ele><time>2012-06-16T06:03:18Z</time></trkpt><trkpt lat="31.6733210441" lon="34.9407135509"><ele>274.59</ele><time>2012-06-16T06:03:19Z</time></trkpt><trkpt lat="31.6733538173" lon="34.9407297280"><ele>274.59</ele><time>2012-06-16T06:03:20Z</time></trkpt><trkpt lat="31.6733879317" lon="34.9407435581"><ele>274.11</ele><time>2012-06-16T06:03:21Z</time></trkpt><trkpt lat="31.6734236386" lon="34.9407557119"><ele>274.59</ele><time>2012-06-16T06:03:22Z</time></trkpt><trkpt lat="31.6736973077" lon="34.9408153072"><ele>274.11</ele><time>2012-06-16T06:03:29Z</time></trkpt><trkpt lat="31.6737398040" lon="34.9408093560"><ele>273.63</ele><time>2012-06-16T06:03:30Z</time></trkpt><trkpt lat="31.6737843119" lon="34.9408000521"><ele>273.63</ele><time>2012-06-16T06:03:31Z</time></trkpt><trkpt lat="31.6738290712" lon="34.9407856353"><ele>273.63</ele><time>2012-06-16T06:03:32Z</time></trkpt><trkpt lat="31.6738753393" lon="34.9407702964"><ele>273.15</ele><time>2012-06-16T06:03:33Z</time></trkpt><trkpt lat="31.6739235353" lon="34.9407514371"><ele>272.67</ele><time>2012-06-16T06:03:34Z</time></trkpt><trkpt lat="31.6740669496" lon="34.9406744912"><ele>272.19</ele><time>2012-06-16T06:03:37Z</time></trkpt><trkpt lat="31.6741107870" lon="34.9406445678"><ele>272.19</ele><time>2012-06-16T06:03:38Z</time></trkpt><trkpt lat="31.6741546243" lon="34.9406201765"><ele>271.71</ele><time>2012-06-16T06:03:39Z</time></trkpt><trkpt lat="31.6742006410" lon="34.9405967910"><ele>271.71</ele><time>2012-06-16T06:03:40Z</time></trkpt><trkpt lat="31.6742438916" lon="34.9405690469"><ele>271.23</ele><time>2012-06-16T06:03:41Z</time></trkpt><trkpt lat="31.6748732887" lon="34.9401592556"><ele>271.23</ele><time>2012-06-16T06:03:57Z</time></trkpt><trkpt lat="31.6749988496" lon="34.9400705751"><ele>271.23</ele><time>2012-06-16T06:04:03Z</time></trkpt><trkpt lat="31.6750140209" lon="34.9400743470"><ele>271.23</ele><time>2012-06-16T06:04:04Z</time></trkpt><trkpt lat="31.6753013525" lon="34.9402680527"><ele>270.27</ele><time>2012-06-16T06:04:13Z</time></trkpt><trkpt lat="31.6755958926" lon="34.9405843858"><ele>269.79</ele><time>2012-06-16T06:04:23Z</time></trkpt><trkpt lat="31.6758245509" lon="34.9409619905"><ele>269.31</ele><time>2012-06-16T06:04:32Z</time></trkpt><trkpt lat="31.6758477688" lon="34.9410059117"><ele>269.31</ele><time>2012-06-16T06:04:33Z</time></trkpt><trkpt lat="31.6758705676" lon="34.9410463125"><ele>269.31</ele><time>2012-06-16T06:04:34Z</time></trkpt><trkpt lat="31.6761636827" lon="34.9417521525"><ele>268.83</ele><time>2012-06-16T06:04:49Z</time></trkpt><trkpt lat="31.6762993019" lon="34.9421595130"><ele>268.83</ele><time>2012-06-16T06:04:58Z</time></trkpt><trkpt lat="31.6763148922" lon="34.9422026798"><ele>268.35</ele><time>2012-06-16T06:04:59Z</time></trkpt><trkpt lat="31.6763246153" lon="34.9422500376"><ele>268.83</ele><time>2012-06-16T06:05:00Z</time></trkpt><trkpt lat="31.6763200052" lon="34.9422911927"><ele>268.35</ele><time>2012-06-16T06:05:01Z</time></trkpt><trkpt lat="31.6763053369" lon="34.9423200265"><ele>268.35</ele><time>2012-06-16T06:05:02Z</time></trkpt><trkpt lat="31.6762838792" lon="34.9423373770"><ele>268.35</ele><time>2012-06-16T06:05:03Z</time></trkpt><trkpt lat="31.6762200929" lon="34.9423958827"><ele>268.35</ele><time>2012-06-16T06:05:06Z</time></trkpt><trkpt lat="31.6762700491" lon="34.9425332621"><ele>268.35</ele><time>2012-06-16T06:05:11Z</time></trkpt><trkpt lat="31.6763544548" lon="34.9427335057"><ele>267.86</ele><time>2012-06-16T06:05:23Z</time></trkpt><trkpt lat="31.6763505153" lon="34.9427060131"><ele>267.86</ele><time>2012-06-16T06:05:36Z</time></trkpt><trkpt lat="31.6763509344" lon="34.9427056778"><ele>267.86</ele><time>2012-06-16T06:05:49Z</time></trkpt><trkpt lat="31.6763494257" lon="34.9427657761"><ele>267.86</ele><time>2012-06-16T06:05:53Z</time></trkpt><trkpt lat="31.6763203405" lon="34.9431712087"><ele>267.38</ele><time>2012-06-16T06:06:03Z</time></trkpt><trkpt lat="31.6762611642" lon="34.9437881168"><ele>267.38</ele><time>2012-06-16T06:06:16Z</time></trkpt><trkpt lat="31.6762512736" lon="34.9439396616"><ele>266.90</ele><time>2012-06-16T06:06:25Z</time></trkpt><trkpt lat="31.6762475856" lon="34.9439618737"><ele>266.90</ele><time>2012-06-16T06:06:26Z</time></trkpt><trkpt lat="31.6762045026" lon="34.9443589244"><ele>266.42</ele><time>2012-06-16T06:06:37Z</time></trkpt><trkpt lat="31.6761447396" lon="34.9450627528"><ele>265.94</ele><time>2012-06-16T06:06:52Z</time></trkpt><trkpt lat="31.6761470865" lon="34.9451567139"><ele>265.94</ele><time>2012-06-16T06:06:54Z</time></trkpt><trkpt lat="31.6761527862" lon="34.9452042393"><ele>265.46</ele><time>2012-06-16T06:06:55Z</time></trkpt><trkpt lat="31.6762096994" lon="34.9458403420"><ele>265.46</ele><time>2012-06-16T06:07:08Z</time></trkpt><trkpt lat="31.6761998087" lon="34.9458838440"><ele>264.98</ele><time>2012-06-16T06:07:09Z</time></trkpt><trkpt lat="31.6761800274" lon="34.9459156953"><ele>264.98</ele><time>2012-06-16T06:07:10Z</time></trkpt><trkpt lat="31.6761534568" lon="34.9459403381"><ele>264.98</ele><time>2012-06-16T06:07:11Z</time></trkpt><trkpt lat="31.6761293169" lon="34.9459621310"><ele>265.46</ele><time>2012-06-16T06:07:12Z</time></trkpt><trkpt lat="31.6761108767" lon="34.9459850974"><ele>265.46</ele><time>2012-06-16T06:07:13Z</time></trkpt><trkpt lat="31.6760971304" lon="34.9460115843"><ele>265.46</ele><time>2012-06-16T06:07:14Z</time></trkpt><trkpt lat="31.6760899220" lon="34.9460438546"><ele>265.94</ele><time>2012-06-16T06:07:15Z</time></trkpt><trkpt lat="31.6760895867" lon="34.9460755382"><ele>265.94</ele><time>2012-06-16T06:07:16Z</time></trkpt><trkpt lat="31.6761028301" lon="34.9461060483"><ele>265.94</ele><time>2012-06-16T06:07:17Z</time></trkpt><trkpt lat="31.6761256289" lon="34.9461315293"><ele>265.94</ele><time>2012-06-16T06:07:18Z</time></trkpt><trkpt lat="31.6761610843" lon="34.9461572617"><ele>265.46</ele><time>2012-06-16T06:07:19Z</time></trkpt><trkpt lat="31.6762060113" lon="34.9461829942"><ele>265.46</ele><time>2012-06-16T06:07:20Z</time></trkpt><trkpt lat="31.6762399580" lon="34.9462075531"><ele>264.98</ele><time>2012-06-16T06:07:21Z</time></trkpt><trkpt lat="31.6762744915" lon="34.9462387338"><ele>264.98</ele><time>2012-06-16T06:07:22Z</time></trkpt><trkpt lat="31.6764194146" lon="34.9464217108"><ele>264.50</ele><time>2012-06-16T06:07:26Z</time></trkpt><trkpt lat="31.6766099352" lon="34.9467228726"><ele>264.02</ele><time>2012-06-16T06:07:32Z</time></trkpt><trkpt lat="31.6767687723" lon="34.9468888342"><ele>263.54</ele><time>2012-06-16T06:07:36Z</time></trkpt><trkpt lat="31.6768984403" lon="34.9469943624"><ele>264.02</ele><time>2012-06-16T06:07:39Z</time></trkpt><trkpt lat="31.6769454628" lon="34.9470147304"><ele>263.54</ele><time>2012-06-16T06:07:40Z</time></trkpt><trkpt lat="31.6769962572" lon="34.9470256269"><ele>264.02</ele><time>2012-06-16T06:07:41Z</time></trkpt><trkpt lat="31.6770499852" lon="34.9470333382"><ele>263.54</ele><time>2012-06-16T06:07:42Z</time></trkpt><trkpt lat="31.6771042999" lon="34.9470378645"><ele>263.06</ele><time>2012-06-16T06:07:43Z</time></trkpt><trkpt lat="31.6777944658" lon="34.9470740743"><ele>262.58</ele><time>2012-06-16T06:07:58Z</time></trkpt><trkpt lat="31.6778354533" lon="34.9470796902"><ele>262.58</ele><time>2012-06-16T06:07:59Z</time></trkpt><trkpt lat="31.6782173328" lon="34.9471094459"><ele>262.10</ele><time>2012-06-16T06:08:08Z</time></trkpt><trkpt lat="31.6782584041" lon="34.9471070152"><ele>262.58</ele><time>2012-06-16T06:08:09Z</time></trkpt><trkpt lat="31.6783028282" lon="34.9471045844"><ele>262.58</ele><time>2012-06-16T06:08:10Z</time></trkpt><trkpt lat="31.6791944951" lon="34.9471350107"><ele>261.14</ele><time>2012-06-16T06:08:27Z</time></trkpt><trkpt lat="31.6794115864" lon="34.9471306521"><ele>261.62</ele><time>2012-06-16T06:08:31Z</time></trkpt><trkpt lat="31.6800844017" lon="34.9469462503"><ele>261.14</ele><time>2012-06-16T06:08:45Z</time></trkpt><trkpt lat="31.6804786865" lon="34.9468637723"><ele>261.62</ele><time>2012-06-16T06:08:58Z</time></trkpt><trkpt lat="31.6806303151" lon="34.9468538817"><ele>262.58</ele><time>2012-06-16T06:09:09Z</time></trkpt><trkpt lat="31.6806329973" lon="34.9468542170"><ele>262.58</ele><time>2012-06-16T06:09:17Z</time></trkpt><trkpt lat="31.6806461569" lon="34.9468527082"><ele>262.58</ele><time>2012-06-16T06:09:18Z</time></trkpt><trkpt lat="31.6806594003" lon="34.9468532950"><ele>263.06</ele><time>2012-06-16T06:09:19Z</time></trkpt><trkpt lat="31.6806730628" lon="34.9468543008"><ele>262.58</ele><time>2012-06-16T06:09:20Z</time></trkpt><trkpt lat="31.6806887370" lon="34.9468539655"><ele>262.58</ele><time>2012-06-16T06:09:21Z</time></trkpt><trkpt lat="31.6810129490" lon="34.9469184224"><ele>264.02</ele><time>2012-06-16T06:09:34Z</time></trkpt><trkpt lat="31.6810628213" lon="34.9469283968"><ele>263.54</ele><time>2012-06-16T06:09:36Z</time></trkpt><trkpt lat="31.6810910683" lon="34.9469231162"><ele>263.54</ele><time>2012-06-16T06:09:37Z</time></trkpt><trkpt lat="31.6814780608" lon="34.9469875731"><ele>264.02</ele><time>2012-06-16T06:09:50Z</time></trkpt><trkpt lat="31.6819001734" lon="34.9470347632"><ele>264.02</ele><time>2012-06-16T06:10:04Z</time></trkpt><trkpt lat="31.6821141634" lon="34.9470648542"><ele>266.90</ele><time>2012-06-16T06:10:13Z</time></trkpt><trkpt lat="31.6823219508" lon="34.9470949452"><ele>269.31</ele><time>2012-06-16T06:10:26Z</time></trkpt><trkpt lat="31.6824341845" lon="34.9471096136"><ele>270.75</ele><time>2012-06-16T06:10:33Z</time></trkpt><trkpt lat="31.6824511159" lon="34.9471122120"><ele>270.27</ele><time>2012-06-16T06:10:34Z</time></trkpt><trkpt lat="31.6826716438" lon="34.9471364357"><ele>271.71</ele><time>2012-06-16T06:10:48Z</time></trkpt><trkpt lat="31.6829883959" lon="34.9472521059"><ele>269.79</ele><time>2012-06-16T06:11:00Z</time></trkpt><trkpt lat="31.6832092591" lon="34.9473139644"><ele>266.42</ele><time>2012-06-16T06:11:10Z</time></trkpt><trkpt lat="31.6832221672" lon="34.9473059177"><ele>266.42</ele><time>2012-06-16T06:11:11Z</time></trkpt><trkpt lat="31.6832292918" lon="34.9472909980"><ele>266.42</ele><time>2012-06-16T06:11:12Z</time></trkpt><trkpt lat="31.6832307167" lon="34.9472701270"><ele>266.42</ele><time>2012-06-16T06:11:13Z</time></trkpt><trkpt lat="31.6832277831" lon="34.9472469930"><ele>266.42</ele><time>2012-06-16T06:11:14Z</time></trkpt><trkpt lat="31.6832235083" lon="34.9472224340"><ele>266.42</ele><time>2012-06-16T06:11:15Z</time></trkpt><trkpt lat="31.6832218319" lon="34.9472035747"><ele>265.94</ele><time>2012-06-16T06:11:16Z</time></trkpt><trkpt lat="31.6832277831" lon="34.9471863080"><ele>265.94</ele><time>2012-06-16T06:11:17Z</time></trkpt><trkpt lat="31.6832390148" lon="34.9471721426"><ele>265.94</ele><time>2012-06-16T06:11:18Z</time></trkpt><trkpt lat="31.6832545213" lon="34.9471614975"><ele>266.42</ele><time>2012-06-16T06:11:19Z</time></trkpt><trkpt lat="31.6832763143" lon="34.9471508525"><ele>265.46</ele><time>2012-06-16T06:11:20Z</time></trkpt><trkpt lat="31.6833049804" lon="34.9471451528"><ele>265.94</ele><time>2012-06-16T06:11:21Z</time></trkpt><trkpt lat="31.6833353229" lon="34.9471473321"><ele>265.94</ele><time>2012-06-16T06:11:22Z</time></trkpt><trkpt lat="31.6833678447" lon="34.9471543729"><ele>265.46</ele><time>2012-06-16T06:11:23Z</time></trkpt><trkpt lat="31.6834043898" lon="34.9471625872"><ele>265.46</ele><time>2012-06-16T06:11:24Z</time></trkpt><trkpt lat="31.6837653145" lon="34.9472308997"><ele>265.94</ele><time>2012-06-16T06:11:35Z</time></trkpt><trkpt lat="31.6840562504" lon="34.9473229330"><ele>266.90</ele><time>2012-06-16T06:11:47Z</time></trkpt><trkpt lat="31.6842525546" lon="34.9473160598"><ele>269.31</ele><time>2012-06-16T06:12:00Z</time></trkpt><trkpt lat="31.6842657980" lon="34.9473137967"><ele>269.31</ele><time>2012-06-16T06:12:01Z</time></trkpt><trkpt lat="31.6842799634" lon="34.9473108631"><ele>269.31</ele><time>2012-06-16T06:12:02Z</time></trkpt><trkpt lat="31.6842952184" lon="34.9473093543"><ele>269.31</ele><time>2012-06-16T06:12:03Z</time></trkpt><trkpt lat="31.6843114793" lon="34.9473113660"><ele>269.79</ele><time>2012-06-16T06:12:04Z</time></trkpt><trkpt lat="31.6843276564" lon="34.9473142158"><ele>269.31</ele><time>2012-06-16T06:12:05Z</time></trkpt><trkpt lat="31.6843430791" lon="34.9473152217"><ele>269.31</ele><time>2012-06-16T06:12:06Z</time></trkpt><trkpt lat="31.6843601782" lon="34.9473151378"><ele>269.79</ele><time>2012-06-16T06:12:07Z</time></trkpt><trkpt lat="31.6844766866" lon="34.9473172333"><ele>270.75</ele><time>2012-06-16T06:12:15Z</time></trkpt><trkpt lat="31.6844900139" lon="34.9473158922"><ele>270.75</ele><time>2012-06-16T06:12:16Z</time></trkpt><trkpt lat="31.6845054366" lon="34.9473184906"><ele>270.75</ele><time>2012-06-16T06:12:17Z</time></trkpt><trkpt lat="31.6845413111" lon="34.9473230168"><ele>271.23</ele><time>2012-06-16T06:12:19Z</time></trkpt><trkpt lat="31.6845561471" lon="34.9473187421"><ele>270.75</ele><time>2012-06-16T06:12:20Z</time></trkpt><trkpt lat="31.6845957097" lon="34.9472935963"><ele>270.75</ele><time>2012-06-16T06:12:24Z</time></trkpt><trkpt lat="31.6846340988" lon="34.9472847115"><ele>271.23</ele><time>2012-06-16T06:12:34Z</time></trkpt><trkpt lat="31.6846586578" lon="34.9472744018"><ele>271.71</ele><time>2012-06-16T06:12:46Z</time></trkpt><trkpt lat="31.6846848931" lon="34.9472864717"><ele>272.19</ele><time>2012-06-16T06:13:10Z</time></trkpt><trkpt lat="31.6846997291" lon="34.9472850468"><ele>272.19</ele><time>2012-06-16T06:13:21Z</time></trkpt><trkpt lat="31.6847687960" lon="34.9472793471"><ele>274.11</ele><time>2012-06-16T06:13:31Z</time></trkpt><trkpt lat="31.6847831290" lon="34.9472762458"><ele>273.63</ele><time>2012-06-16T06:13:32Z</time></trkpt><trkpt lat="31.6848664451" lon="34.9472593982"><ele>275.07</ele><time>2012-06-16T06:13:44Z</time></trkpt><trkpt lat="31.6848842986" lon="34.9472490884"><ele>275.07</ele><time>2012-06-16T06:13:46Z</time></trkpt><trkpt lat="31.6849010624" lon="34.9472433049"><ele>275.07</ele><time>2012-06-16T06:13:47Z</time></trkpt><trkpt lat="31.6850839555" lon="34.9472011440"><ele>277.48</ele><time>2012-06-16T06:13:57Z</time></trkpt><trkpt lat="31.6850997973" lon="34.9472051673"><ele>277.48</ele><time>2012-06-16T06:13:58Z</time></trkpt><trkpt lat="31.6851144657" lon="34.9471987970"><ele>277.96</ele><time>2012-06-16T06:13:59Z</time></trkpt><trkpt lat="31.6851285473" lon="34.9471944384"><ele>277.96</ele><time>2012-06-16T06:14:00Z</time></trkpt><trkpt lat="31.6851434670" lon="34.9471908342"><ele>277.96</ele><time>2012-06-16T06:14:01Z</time></trkpt><trkpt lat="31.6851583868" lon="34.9471872300"><ele>278.44</ele><time>2012-06-16T06:14:02Z</time></trkpt><trkpt lat="31.6851857956" lon="34.9471807759"><ele>278.92</ele><time>2012-06-16T06:14:04Z</time></trkpt><trkpt lat="31.6852010507" lon="34.9471822847"><ele>278.92</ele><time>2012-06-16T06:14:05Z</time></trkpt><trkpt lat="31.6852442175" lon="34.9471853860"><ele>279.40</ele><time>2012-06-16T06:14:08Z</time></trkpt><trkpt lat="31.6852577124" lon="34.9471877329"><ele>279.40</ele><time>2012-06-16T06:14:09Z</time></trkpt><trkpt lat="31.6852704529" lon="34.9471876491"><ele>279.40</ele><time>2012-06-16T06:14:10Z</time></trkpt><trkpt lat="31.6853536014" lon="34.9471651018"><ele>281.32</ele><time>2012-06-16T06:14:16Z</time></trkpt><trkpt lat="31.6853805911" lon="34.9471649341"><ele>280.84</ele><time>2012-06-16T06:14:18Z</time></trkpt><trkpt lat="31.6853945889" lon="34.9471621681"><ele>280.84</ele><time>2012-06-16T06:14:19Z</time></trkpt><trkpt lat="31.6854069103" lon="34.9471658561"><ele>280.84</ele><time>2012-06-16T06:14:20Z</time></trkpt><trkpt lat="31.6854179744" lon="34.9471652694"><ele>280.84</ele><time>2012-06-16T06:14:21Z</time></trkpt><trkpt lat="31.6854310501" lon="34.9471616652"><ele>280.84</ele><time>2012-06-16T06:14:22Z</time></trkpt><trkpt lat="31.6854446288" lon="34.9471614137"><ele>280.84</ele><time>2012-06-16T06:14:23Z</time></trkpt><trkpt lat="31.6854584590" lon="34.9471606594"><ele>280.84</ele><time>2012-06-16T06:14:24Z</time></trkpt><trkpt lat="31.6854717862" lon="34.9471618328"><ele>280.84</ele><time>2012-06-16T06:14:25Z</time></trkpt><trkpt lat="31.6855270229" lon="34.9471503496"><ele>282.28</ele><time>2012-06-16T06:14:29Z</time></trkpt><trkpt lat="31.6857706010" lon="34.9471199233"><ele>281.80</ele><time>2012-06-16T06:14:43Z</time></trkpt><trkpt lat="31.6860332061" lon="34.9471360166"><ele>281.32</ele><time>2012-06-16T06:14:55Z</time></trkpt><trkpt lat="31.6861648019" lon="34.9471915048"><ele>280.36</ele><time>2012-06-16T06:14:59Z</time></trkpt><trkpt lat="31.6862057056" lon="34.9472236913"><ele>280.36</ele><time>2012-06-16T06:15:00Z</time></trkpt><trkpt lat="31.6863590106" lon="34.9473649263"><ele>278.44</ele><time>2012-06-16T06:15:03Z</time></trkpt><trkpt lat="31.6865248885" lon="34.9475470651"><ele>275.07</ele><time>2012-06-16T06:15:06Z</time></trkpt><trkpt lat="31.6866791993" lon="34.9476872943"><ele>272.19</ele><time>2012-06-16T06:15:09Z</time></trkpt><trkpt lat="31.6867246293" lon="34.9477146193"><ele>271.71</ele><time>2012-06-16T06:15:10Z</time></trkpt><trkpt lat="31.6867700592" lon="34.9477274437"><ele>271.23</ele><time>2012-06-16T06:15:11Z</time></trkpt><trkpt lat="31.6868149024" lon="34.9477276951"><ele>270.27</ele><time>2012-06-16T06:15:12Z</time></trkpt><trkpt lat="31.6868591588" lon="34.9477163795"><ele>269.31</ele><time>2012-06-16T06:15:13Z</time></trkpt><trkpt lat="31.6869014874" lon="34.9476971850"><ele>269.31</ele><time>2012-06-16T06:15:14Z</time></trkpt><trkpt lat="31.6869381163" lon="34.9476694409"><ele>268.83</ele><time>2012-06-16T06:15:15Z</time></trkpt><trkpt lat="31.6869724821" lon="34.9476359133"><ele>268.35</ele><time>2012-06-16T06:15:16Z</time></trkpt><trkpt lat="31.6870010644" lon="34.9476028048"><ele>267.38</ele><time>2012-06-16T06:15:17Z</time></trkpt><trkpt lat="31.6870200913" lon="34.9475702830"><ele>266.90</ele><time>2012-06-16T06:15:18Z</time></trkpt><trkpt lat="31.6870275512" lon="34.9475373421"><ele>267.38</ele><time>2012-06-16T06:15:19Z</time></trkpt><trkpt lat="31.6870268807" lon="34.9475074187"><ele>266.90</ele><time>2012-06-16T06:15:20Z</time></trkpt><trkpt lat="31.6870210133" lon="34.9474841170"><ele>266.90</ele><time>2012-06-16T06:15:21Z</time></trkpt><trkpt lat="31.6870166548" lon="34.9474638328"><ele>267.38</ele><time>2012-06-16T06:15:22Z</time></trkpt><trkpt lat="31.6870167386" lon="34.9474466499"><ele>267.38</ele><time>2012-06-16T06:15:23Z</time></trkpt><trkpt lat="31.6870216839" lon="34.9474293832"><ele>267.38</ele><time>2012-06-16T06:15:24Z</time></trkpt><trkpt lat="31.6870252043" lon="34.9474103563"><ele>266.90</ele><time>2012-06-16T06:15:25Z</time></trkpt><trkpt lat="31.6870072670" lon="34.9473676924"><ele>267.38</ele><time>2012-06-16T06:15:28Z</time></trkpt><trkpt lat="31.6869583167" lon="34.9473899882"><ele>267.86</ele><time>2012-06-16T06:15:41Z</time></trkpt><trkpt lat="31.6869583167" lon="34.9473809358"><ele>267.38</ele><time>2012-06-16T06:16:03Z</time></trkpt><trkpt lat="31.6869569756" lon="34.9473577179"><ele>267.86</ele><time>2012-06-16T06:16:21Z</time></trkpt><trkpt lat="31.6870324127" lon="34.9473393615"><ele>267.38</ele><time>2012-06-16T06:16:31Z</time></trkpt><trkpt lat="31.6869639326" lon="34.9473826122"><ele>267.86</ele><time>2012-06-16T06:16:40Z</time></trkpt><trkpt lat="31.6869672015" lon="34.9473541975"><ele>267.86</ele><time>2012-06-16T06:16:55Z</time></trkpt><trkpt lat="31.6869701352" lon="34.9473345000"><ele>267.86</ele><time>2012-06-16T06:16:57Z</time></trkpt><trkpt lat="31.6870068479" lon="34.9472504295"><ele>267.86</ele><time>2012-06-16T06:17:02Z</time></trkpt><trkpt lat="31.6869921796" lon="34.9471493438"><ele>268.35</ele><time>2012-06-16T06:17:07Z</time></trkpt><trkpt lat="31.6869911738" lon="34.9470863119"><ele>267.86</ele><time>2012-06-16T06:17:10Z</time></trkpt><trkpt lat="31.6869718116" lon="34.9470479228"><ele>268.35</ele><time>2012-06-16T06:17:13Z</time></trkpt><trkpt lat="31.6869466659" lon="34.9469838850"><ele>268.35</ele><time>2012-06-16T06:17:18Z</time></trkpt><trkpt lat="31.6869339254" lon="34.9469309952"><ele>268.35</ele><time>2012-06-16T06:17:31Z</time></trkpt><trkpt lat="31.6869407147" lon="34.9469144829"><ele>267.86</ele><time>2012-06-16T06:17:55Z</time></trkpt><trkpt lat="31.6869365238" lon="34.9469048437"><ele>267.86</ele><time>2012-06-16T06:18:32Z</time></trkpt><trkpt lat="31.6869331710" lon="34.9469009042"><ele>267.38</ele><time>2012-06-16T06:19:07Z</time></trkpt><trkpt lat="31.6869430616" lon="34.9468973838"><ele>267.38</ele><time>2012-06-16T06:19:36Z</time></trkpt><trkpt lat="31.6869377811" lon="34.9469079450"><ele>267.38</ele><time>2012-06-16T06:20:11Z</time></trkpt><trkpt lat="31.6869412176" lon="34.9469068553"><ele>267.38</ele><time>2012-06-16T06:20:33Z</time></trkpt><trkpt lat="31.6869478393" lon="34.9469081964"><ele>267.38</ele><time>2012-06-16T06:20:59Z</time></trkpt><trkpt lat="31.6869461630" lon="34.9469078612"><ele>267.38</ele><time>2012-06-16T06:21:31Z</time></trkpt><trkpt lat="31.6869465820" lon="34.9469196796"><ele>267.86</ele><time>2012-06-16T06:21:50Z</time></trkpt><trkpt lat="31.6869454086" lon="34.9469353538"><ele>267.86</ele><time>2012-06-16T06:22:09Z</time></trkpt><trkpt lat="31.6869448218" lon="34.9469342642"><ele>268.35</ele><time>2012-06-16T06:22:13Z</time></trkpt><trkpt lat="31.6869737394" lon="34.9469398800"><ele>267.38</ele><time>2012-06-16T06:22:23Z</time></trkpt></trkseg></trk></gpx>